Time,TemperatureF,DewpointF,PressureIn,WindDirection,WindDirectionDegrees,WindSpeedMPH,WindSpeedGustMPH,Humidity,HourlyPrecipIn,Conditions,Clouds,dailyrainin,SoftwareType,DateUTC
2013-11-20 00:00:00,34.9,15.2,27.28,WNW,292,0.0,0.0,44,0.00,,---,0.00,VWS V15.00,2013-11-20 05:00:00,
2013-11-20 00:01:00,34.7,15.6,27.28,WNW,292,0.0,0.0,45,0.00,,---,0.00,VWS V15.00,2013-11-20 05:01:00,
2013-11-20 00:02:00,34.5,15.9,27.28,West,270,2.5,2.5,46,0.00,,---,0.00,VWS V15.00,2013-11-20 05:02:00,
2013-11-20 00:05:00,34.3,16.7,27.28,WSW,248,0.0,2.9,48,0.00,,---,0.00,VWS V15.00,2013-11-20 05:05:00,
2013-11-20 00:07:00,34.2,15.6,27.28,WNW,292,0.0,0.0,46,0.00,,---,0.00,VWS V15.00,2013-11-20 05:07:00,
2013-11-20 00:10:00,34.0,14.9,27.28,SSE,158,0.0,0.0,45,0.00,,---,0.00,VWS V15.00,2013-11-20 05:10:00,
2013-11-20 00:12:00,34.0,15.4,27.26,WNW,292,0.0,0.0,46,0.00,,---,0.00,VWS V15.00,2013-11-20 05:12:00,
2013-11-20 00:15:00,34.0,15.9,27.25,NW,315,0.0,2.2,47,0.00,,---,0.00,VWS V15.00,2013-11-20 05:15:00,
2013-11-20 00:17:00,33.8,14.7,27.26,NW,315,0.0,0.0,45,0.00,,---,0.00,VWS V15.00,2013-11-20 05:17:00,
2013-11-20 00:20:00,33.8,14.7,27.25,NNW,338,0.0,0.0,45,0.00,,---,0.00,VWS V15.00,2013-11-20 05:20:00,
2013-11-20 00:22:00,33.6,15.6,27.26,WNW,292,0.0,2.0,47,0.00,,---,0.00,VWS V15.00,2013-11-20 05:22:00,
2013-11-20 00:25:00,33.6,16.5,27.25,WSW,248,0.0,2.0,49,0.00,,---,0.00,VWS V15.00,2013-11-20 05:25:00,
2013-11-20 00:27:00,33.4,15.9,27.28,WSW,248,0.0,0.0,48,0.00,,---,0.00,VWS V15.00,2013-11-20 05:27:00,
2013-11-20 00:30:00,33.3,14.7,27.28,WSW,248,0.0,0.0,46,0.00,,---,0.00,VWS V15.00,2013-11-20 05:30:00,
2013-11-20 00:32:00,33.3,15.2,27.28,WNW,292,1.1,1.3,47,0.00,,---,0.00,VWS V15.00,2013-11-20 05:32:00,
2013-11-20 00:35:00,33.1,15.1,27.28,NNW,338,0.0,1.6,47,0.00,,---,0.00,VWS V15.00,2013-11-20 05:35:00,
2013-11-20 00:37:00,33.1,15.5,27.28,WNW,292,2.7,2.7,48,0.00,,---,0.00,VWS V15.00,2013-11-20 05:37:00,
2013-11-20 00:40:00,32.7,16.1,27.28,WNW,292,1.6,2.9,50,0.00,,---,0.00,VWS V15.00,2013-11-20 05:40:00,
2013-11-20 00:42:00,32.7,16.1,27.28,South,180,0.0,2.2,50,0.00,,---,0.00,VWS V15.00,2013-11-20 05:42:00,
2013-11-20 00:45:00,32.7,15.7,27.28,East,90,0.0,2.2,49,0.00,,---,0.00,VWS V15.00,2013-11-20 05:45:00,
2013-11-20 00:47:00,32.7,15.7,27.28,NW,315,0.0,0.0,49,0.00,,---,0.00,VWS V15.00,2013-11-20 05:47:00,
2013-11-20 00:50:00,32.7,15.7,27.28,NW,315,0.0,0.0,49,0.00,,---,0.00,VWS V15.00,2013-11-20 05:50:00,
2013-11-20 00:52:00,32.7,16.1,27.28,SE,135,0.0,1.6,50,0.00,,---,0.00,VWS V15.00,2013-11-20 05:52:00,
2013-11-20 00:55:00,32.7,16.1,27.28,SE,135,0.0,1.6,50,0.00,,---,0.00,VWS V15.00,2013-11-20 05:55:00,
2013-11-20 00:57:00,32.7,17.0,27.31,WSW,248,2.5,2.9,52,0.00,,---,0.00,VWS V15.00,2013-11-20 05:57:00,
2013-11-20 01:00:00,32.9,17.7,27.31,WNW,292,2.9,2.9,53,0.00,,---,0.00,VWS V15.00,2013-11-20 06:00:00,
2013-11-20 01:02:00,33.1,17.4,27.31,SW,225,0.0,2.9,52,0.00,,---,0.00,VWS V15.00,2013-11-20 06:02:00,
2013-11-20 01:05:00,33.1,16.9,27.31,ESE,112,0.0,2.9,51,0.00,,---,0.00,VWS V15.00,2013-11-20 06:05:00,
2013-11-20 01:07:00,33.1,16.5,27.31,NW,315,0.0,2.7,50,0.00,,---,0.00,VWS V15.00,2013-11-20 06:07:00,
2013-11-20 01:10:00,33.3,17.1,27.31,WSW,248,2.5,2.7,51,0.00,,---,0.00,VWS V15.00,2013-11-20 06:10:00,
2013-11-20 01:12:00,33.3,17.1,27.31,SSE,158,0.0,2.5,51,0.00,,---,0.00,VWS V15.00,2013-11-20 06:12:00,
2013-11-20 01:15:00,33.3,17.1,27.31,NNW,338,2.2,2.5,51,0.00,,---,0.00,VWS V15.00,2013-11-20 06:15:00,
2013-11-20 01:17:00,33.4,17.3,27.31,WNW,292,0.9,2.5,51,0.00,,---,0.00,VWS V15.00,2013-11-20 06:17:00,
2013-11-20 01:20:00,33.6,17.4,27.31,ENE,68,1.6,2.7,51,0.00,,---,0.00,VWS V15.00,2013-11-20 06:20:00,
2013-11-20 01:22:00,33.6,17.0,27.31,West,270,2.2,2.2,50,0.00,,---,0.00,VWS V15.00,2013-11-20 06:22:00,
2013-11-20 01:25:00,33.8,17.1,27.31,SSW,202,0.0,2.2,50,0.00,,---,0.00,VWS V15.00,2013-11-20 06:25:00,
2013-11-20 01:27:00,34.0,17.3,27.31,SSE,158,1.1,2.2,50,0.00,,---,0.00,VWS V15.00,2013-11-20 06:27:00,
2013-11-20 01:30:00,34.0,16.8,27.31,NW,315,0.0,2.2,49,0.00,,---,0.00,VWS V15.00,2013-11-20 06:30:00,
2013-11-20 01:32:00,34.0,17.3,27.31,WSW,248,1.3,2.0,50,0.00,,---,0.00,VWS V15.00,2013-11-20 06:32:00,
2013-11-20 01:35:00,34.0,17.3,27.31,WSW,248,0.0,2.0,50,0.00,,---,0.00,VWS V15.00,2013-11-20 06:35:00,
2013-11-20 01:37:00,34.2,17.0,27.31,NW,315,1.3,2.2,49,0.00,,---,0.00,VWS V15.00,2013-11-20 06:37:00,
2013-11-20 01:40:00,34.2,17.0,27.31,SSW,202,1.6,2.2,49,0.00,,---,0.00,VWS V15.00,2013-11-20 06:40:00,
2013-11-20 01:42:00,34.3,17.2,27.31,WNW,292,2.5,2.5,49,0.00,,---,0.00,VWS V15.00,2013-11-20 06:42:00,
2013-11-20 01:45:00,34.5,16.9,27.31,West,270,0.0,2.7,48,0.00,,---,0.00,VWS V15.00,2013-11-20 06:45:00,
2013-11-20 01:47:00,34.5,16.9,27.31,NNW,338,0.0,0.9,48,0.00,,---,0.00,VWS V15.00,2013-11-20 06:47:00,
2013-11-20 01:50:00,34.5,16.4,27.31,NE,45,3.6,4.0,47,0.00,,---,0.00,VWS V15.00,2013-11-20 06:50:00,
2013-11-20 01:52:00,34.7,14.0,27.31,SSW,202,2.5,3.6,42,0.00,,---,0.00,VWS V15.00,2013-11-20 06:52:00,
2013-11-20 01:55:00,35.4,14.6,27.31,NNE,22,2.5,4.9,42,0.00,,---,0.00,VWS V15.00,2013-11-20 06:55:00,
2013-11-20 01:57:00,35.4,14.1,27.31,ESE,112,2.5,3.1,41,0.00,,---,0.00,VWS V15.00,2013-11-20 06:57:00,
2013-11-20 02:00:00,35.8,13.8,27.31,WSW,248,0.9,3.8,40,0.00,,---,0.00,VWS V15.00,2013-11-20 07:00:00,
2013-11-20 02:02:00,36.1,14.2,27.31,NNW,338,0.9,2.9,40,0.00,,---,0.00,VWS V15.00,2013-11-20 07:02:00,
2013-11-20 02:05:00,36.3,14.3,27.31,NE,45,1.6,2.9,40,0.00,,---,0.00,VWS V15.00,2013-11-20 07:05:00,
2013-11-20 02:07:00,36.5,11.5,27.31,WSW,248,2.7,4.0,35,0.00,,---,0.00,VWS V15.00,2013-11-20 07:07:00,
2013-11-20 02:10:00,37.0,12.6,27.31,North,0,2.2,4.0,36,0.00,,---,0.00,VWS V15.00,2013-11-20 07:10:00,
2013-11-20 02:12:00,37.0,13.2,27.31,East,90,0.0,2.2,37,0.00,,---,0.00,VWS V15.00,2013-11-20 07:12:00,
2013-11-20 02:15:00,37.2,11.4,27.31,SSW,202,2.5,3.6,34,0.00,,---,0.00,VWS V15.00,2013-11-20 07:15:00,
2013-11-20 02:17:00,37.2,11.4,27.31,NNE,22,1.6,2.5,34,0.00,,---,0.00,VWS V15.00,2013-11-20 07:17:00,
2013-11-20 02:20:00,37.4,9.5,27.31,SE,135,3.8,3.8,31,0.00,,---,0.00,VWS V15.00,2013-11-20 07:20:00,
2013-11-20 02:22:00,37.6,9.7,27.31,SSE,158,2.7,3.8,31,0.00,,---,0.00,VWS V15.00,2013-11-20 07:22:00,
2013-11-20 02:25:00,37.9,10.0,27.31,ENE,68,3.4,3.8,31,0.00,,---,0.00,VWS V15.00,2013-11-20 07:25:00,
2013-11-20 02:27:00,38.1,10.2,27.31,SSE,158,2.0,4.3,31,0.00,,---,0.00,VWS V15.00,2013-11-20 07:27:00,
2013-11-20 02:30:00,38.1,10.2,27.31,ESE,112,0.0,4.3,31,0.00,,---,0.00,VWS V15.00,2013-11-20 07:30:00,
2013-11-20 02:32:00,37.9,10.0,27.31,North,0,4.3,4.3,31,0.00,,---,0.00,VWS V15.00,2013-11-20 07:32:00,
2013-11-20 02:35:00,37.9,10.0,27.31,East,90,2.0,4.3,31,0.00,,---,0.00,VWS V15.00,2013-11-20 07:35:00,
2013-11-20 02:37:00,37.8,9.9,27.31,SE,135,1.6,2.5,31,0.00,,---,0.00,VWS V15.00,2013-11-20 07:37:00,
2013-11-20 02:40:00,37.6,9.0,27.31,SSW,202,1.3,2.9,30,0.00,,---,0.00,VWS V15.00,2013-11-20 07:40:00,
2013-11-20 02:42:00,37.6,9.0,27.31,ENE,68,1.1,3.4,30,0.00,,---,0.00,VWS V15.00,2013-11-20 07:42:00,
2013-11-20 02:45:00,37.2,9.4,27.31,WNW,292,2.0,3.4,31,0.00,,---,0.00,VWS V15.00,2013-11-20 07:45:00,
2013-11-20 02:47:00,37.2,9.4,27.31,ENE,68,0.0,2.2,31,0.00,,---,0.00,VWS V15.00,2013-11-20 07:47:00,
2013-11-20 02:50:00,36.9,8.3,27.31,NNW,338,2.5,3.6,30,0.00,,---,0.00,VWS V15.00,2013-11-20 07:50:00,
2013-11-20 02:52:00,36.9,8.3,27.31,South,180,5.6,5.6,30,0.00,,---,0.00,VWS V15.00,2013-11-20 07:52:00,
2013-11-20 02:55:00,37.2,8.6,27.31,SSE,158,1.6,5.6,30,0.00,,---,0.00,VWS V15.00,2013-11-20 07:55:00,
2013-11-20 02:57:00,37.2,8.6,27.34,ESE,112,1.6,3.4,30,0.00,,---,0.00,VWS V15.00,2013-11-20 07:57:00,
2013-11-20 03:00:00,37.2,8.6,27.34,ENE,68,1.1,3.4,30,0.00,,---,0.00,VWS V15.00,2013-11-20 08:00:00,
2013-11-20 03:02:00,37.0,8.5,27.34,SW,225,0.0,1.6,30,0.00,,---,0.00,VWS V15.00,2013-11-20 08:02:00,
2013-11-20 03:05:00,36.7,8.9,27.34,NNW,338,0.0,2.2,31,0.00,,---,0.00,VWS V15.00,2013-11-20 08:05:00,
2013-11-20 03:07:00,36.5,8.8,27.34,ENE,68,2.2,3.1,31,0.00,,---,0.00,VWS V15.00,2013-11-20 08:07:00,
2013-11-20 03:10:00,36.1,8.4,27.34,West,270,1.3,3.4,31,0.00,,---,0.00,VWS V15.00,2013-11-20 08:10:00,
2013-11-20 03:12:00,36.1,8.4,27.34,WSW,248,1.6,2.7,31,0.00,,---,0.00,VWS V15.00,2013-11-20 08:12:00,
2013-11-20 03:15:00,36.0,8.3,27.34,WNW,292,1.6,4.0,31,0.00,,---,0.00,VWS V15.00,2013-11-20 08:15:00,
2013-11-20 03:17:00,36.0,8.3,27.34,NE,45,1.6,4.0,31,0.00,,---,0.00,VWS V15.00,2013-11-20 08:17:00,
2013-11-20 03:20:00,36.1,8.4,27.34,ENE,68,0.0,4.0,31,0.00,,---,0.00,VWS V15.00,2013-11-20 08:20:00,
2013-11-20 03:22:00,36.0,8.3,27.34,SE,135,2.0,2.0,31,0.00,,---,0.00,VWS V15.00,2013-11-20 08:22:00,
2013-11-20 03:25:00,35.6,8.7,27.34,SSW,202,1.6,3.1,32,0.00,,---,0.00,VWS V15.00,2013-11-20 08:25:00,
2013-11-20 03:27:00,35.1,8.9,27.34,WSW,248,0.0,3.6,33,0.00,,---,0.00,VWS V15.00,2013-11-20 08:27:00,
2013-11-20 03:30:00,35.1,8.9,27.34,NW,315,0.0,3.6,33,0.00,,---,0.00,VWS V15.00,2013-11-20 08:30:00,
2013-11-20 03:32:00,34.7,8.6,27.34,WSW,248,3.4,3.6,33,0.00,,---,0.00,VWS V15.00,2013-11-20 08:32:00,
2013-11-20 03:35:00,34.5,8.4,27.34,NW,315,1.3,4.0,33,0.00,,---,0.00,VWS V15.00,2013-11-20 08:35:00,
2013-11-20 03:37:00,34.5,9.1,27.34,SW,225,0.0,1.3,34,0.00,,---,0.00,VWS V15.00,2013-11-20 08:37:00,
2013-11-20 03:40:00,34.3,8.9,27.34,WNW,292,2.5,3.1,34,0.00,,---,0.00,VWS V15.00,2013-11-20 08:40:00,
2013-11-20 03:41:00,34.0,9.9,27.34,West,270,3.1,3.1,36,0.00,,---,0.00,VWS V15.00,2013-11-20 08:41:00,
2013-11-20 03:45:00,34.0,11.1,27.34,WNW,292,1.6,3.1,38,0.00,,---,0.00,VWS V15.00,2013-11-20 08:45:00,
2013-11-20 03:46:00,33.6,11.9,27.34,WNW,292,2.0,2.5,40,0.00,,---,0.00,VWS V15.00,2013-11-20 08:46:00,
2013-11-20 03:50:00,33.4,11.7,27.34,NW,315,0.0,2.5,40,0.00,,---,0.00,VWS V15.00,2013-11-20 08:50:00,
2013-11-20 03:51:00,33.1,11.4,27.34,West,270,2.0,2.0,40,0.00,,---,0.00,VWS V15.00,2013-11-20 08:51:00,
2013-11-20 03:55:00,32.9,11.2,27.34,WNW,292,2.5,2.9,40,0.00,,---,0.00,VWS V15.00,2013-11-20 08:55:00,
2013-11-20 03:56:00,33.1,11.4,27.34,WSW,248,2.0,3.4,40,0.00,,---,0.00,VWS V15.00,2013-11-20 08:56:00,
2013-11-20 04:00:00,32.9,11.2,27.34,NW,315,1.3,3.4,40,0.00,,---,0.00,VWS V15.00,2013-11-20 09:00:00,
2013-11-20 04:01:00,32.9,11.2,27.34,West,270,2.5,2.5,40,0.00,,---,0.00,VWS V15.00,2013-11-20 09:01:00,
2013-11-20 04:05:00,32.7,11.6,27.34,WSW,248,2.0,3.1,41,0.00,,---,0.00,VWS V15.00,2013-11-20 09:05:00,
2013-11-20 04:06:00,32.7,11.6,27.34,NNW,338,2.0,2.0,41,0.00,,---,0.00,VWS V15.00,2013-11-20 09:06:00,
2013-11-20 04:10:00,32.5,11.5,27.34,WNW,292,1.3,2.0,41,0.00,,---,0.00,VWS V15.00,2013-11-20 09:10:00,
2013-11-20 04:11:00,32.4,11.9,27.37,WSW,248,2.7,2.7,42,0.00,,---,0.00,VWS V15.00,2013-11-20 09:11:00,
2013-11-20 04:15:00,32.4,11.9,27.37,NNE,22,0.9,2.7,42,0.00,,---,0.00,VWS V15.00,2013-11-20 09:15:00,
2013-11-20 04:16:00,32.2,11.7,27.37,NW,315,2.2,3.4,42,0.00,,---,0.00,VWS V15.00,2013-11-20 09:16:00,
2013-11-20 04:20:00,32.2,11.7,27.37,WNW,292,2.0,3.4,42,0.00,,---,0.00,VWS V15.00,2013-11-20 09:20:00,
2013-11-20 04:21:00,32.0,11.5,27.37,WNW,292,1.3,2.2,42,0.00,,---,0.00,VWS V15.00,2013-11-20 09:21:00,
2013-11-20 04:25:00,31.8,11.4,27.37,WNW,292,1.3,2.5,42,0.00,,---,0.00,VWS V15.00,2013-11-20 09:25:00,
2013-11-20 04:26:00,31.8,11.9,27.34,West,270,2.0,2.0,43,0.00,,---,0.00,VWS V15.00,2013-11-20 09:26:00,
2013-11-20 04:30:00,31.6,12.2,27.34,WNW,292,2.0,2.0,44,0.00,,---,0.00,VWS V15.00,2013-11-20 09:30:00,
2013-11-20 04:31:00,31.6,12.2,27.34,WSW,248,2.5,2.7,44,0.00,,---,0.00,VWS V15.00,2013-11-20 09:31:00,
2013-11-20 04:35:00,31.5,12.6,27.34,West,270,2.0,3.1,45,0.00,,---,0.00,VWS V15.00,2013-11-20 09:35:00,
2013-11-20 04:36:00,31.3,12.9,27.34,SSW,202,0.0,2.0,46,0.00,,---,0.00,VWS V15.00,2013-11-20 09:36:00,
2013-11-20 04:40:00,31.1,12.2,27.34,WNW,292,2.5,2.5,45,0.00,,---,0.00,VWS V15.00,2013-11-20 09:40:00,
2013-11-20 04:41:00,31.1,11.8,27.37,WNW,292,0.0,2.5,44,0.00,,---,0.00,VWS V15.00,2013-11-20 09:41:00,
2013-11-20 04:45:00,31.1,12.8,27.37,WNW,292,2.0,2.5,46,0.00,,---,0.00,VWS V15.00,2013-11-20 09:45:00,
2013-11-20 04:46:00,30.9,12.6,27.37,WSW,248,3.6,3.6,46,0.00,,---,0.00,VWS V15.00,2013-11-20 09:46:00,
2013-11-20 04:50:00,31.1,12.2,27.37,WNW,292,2.5,3.6,45,0.00,,---,0.00,VWS V15.00,2013-11-20 09:50:00,
2013-11-20 04:51:00,31.1,12.8,27.37,West,270,2.5,2.9,46,0.00,,---,0.00,VWS V15.00,2013-11-20 09:51:00,
2013-11-20 04:55:00,31.1,13.2,27.37,WNW,292,3.1,3.4,47,0.00,,---,0.00,VWS V15.00,2013-11-20 09:55:00,
2013-11-20 04:56:00,30.9,12.6,27.37,WNW,292,0.0,3.1,46,0.00,,---,0.00,VWS V15.00,2013-11-20 09:56:00,
2013-11-20 05:00:00,30.9,12.6,27.37,WSW,248,2.5,3.1,46,0.00,,---,0.00,VWS V15.00,2013-11-20 10:00:00,
2013-11-20 05:01:00,30.9,12.6,27.37,West,270,2.7,2.7,46,0.00,,---,0.00,VWS V15.00,2013-11-20 10:01:00,
2013-11-20 05:05:00,30.7,12.9,27.37,SSE,158,2.0,3.4,47,0.00,,---,0.00,VWS V15.00,2013-11-20 10:05:00,
2013-11-20 05:06:00,30.7,13.4,27.37,WNW,292,2.0,2.5,48,0.00,,---,0.00,VWS V15.00,2013-11-20 10:06:00,
2013-11-20 05:10:00,30.7,12.9,27.37,WNW,292,0.0,2.9,47,0.00,,---,0.00,VWS V15.00,2013-11-20 10:10:00,
2013-11-20 05:11:00,30.6,12.7,27.37,WSW,248,1.3,1.3,47,0.00,,---,0.00,VWS V15.00,2013-11-20 10:11:00,
2013-11-20 05:15:00,30.6,12.7,27.37,WNW,292,1.3,2.5,47,0.00,,---,0.00,VWS V15.00,2013-11-20 10:15:00,
2013-11-20 05:16:00,30.4,12.6,27.37,WNW,292,1.6,2.5,47,0.00,,---,0.00,VWS V15.00,2013-11-20 10:16:00,
2013-11-20 05:20:00,30.4,13.1,27.37,WSW,248,1.1,2.5,48,0.00,,---,0.00,VWS V15.00,2013-11-20 10:20:00,
2013-11-20 05:21:00,30.4,14.0,27.37,SSW,202,2.2,2.9,50,0.00,,---,0.00,VWS V15.00,2013-11-20 10:21:00,
2013-11-20 05:25:00,30.2,13.8,27.37,NNW,338,2.7,2.9,50,0.00,,---,0.00,VWS V15.00,2013-11-20 10:25:00,
2013-11-20 05:26:00,30.2,13.8,27.37,WNW,292,3.4,3.4,50,0.00,,---,0.00,VWS V15.00,2013-11-20 10:26:00,
2013-11-20 05:30:00,30.2,13.4,27.37,WNW,292,0.0,3.8,49,0.00,,---,0.00,VWS V15.00,2013-11-20 10:30:00,
2013-11-20 05:31:00,30.2,13.8,27.37,WSW,248,2.9,3.4,50,0.00,,---,0.00,VWS V15.00,2013-11-20 10:31:00,
2013-11-20 05:35:00,30.2,14.3,27.37,WNW,292,2.5,3.6,51,0.00,,---,0.00,VWS V15.00,2013-11-20 10:35:00,
2013-11-20 05:36:00,30.4,14.4,27.37,WNW,292,2.5,2.9,51,0.00,,---,0.00,VWS V15.00,2013-11-20 10:36:00,
2013-11-20 05:40:00,30.2,13.8,27.37,WNW,292,1.1,2.9,50,0.00,,---,0.00,VWS V15.00,2013-11-20 10:40:00,
2013-11-20 05:41:00,30.6,12.7,27.37,WSW,248,2.7,2.7,47,0.00,,---,0.00,VWS V15.00,2013-11-20 10:41:00,
2013-11-20 05:45:00,30.6,13.2,27.37,WNW,292,1.1,3.1,48,0.00,,---,0.00,VWS V15.00,2013-11-20 10:45:00,
2013-11-20 05:46:00,30.7,13.4,27.37,West,270,2.0,2.2,48,0.00,,---,0.00,VWS V15.00,2013-11-20 10:46:00,
2013-11-20 05:50:00,30.6,14.1,27.37,WNW,292,0.0,2.7,50,0.00,,---,0.00,VWS V15.00,2013-11-20 10:50:00,
2013-11-20 05:51:00,30.4,14.0,27.37,WSW,248,2.9,2.9,50,0.00,,---,0.00,VWS V15.00,2013-11-20 10:51:00,
2013-11-20 05:55:00,30.4,14.4,27.37,WNW,292,3.4,3.6,51,0.00,,---,0.00,VWS V15.00,2013-11-20 10:55:00,
2013-11-20 05:56:00,30.2,14.7,27.37,WNW,292,0.0,3.4,52,0.00,,---,0.00,VWS V15.00,2013-11-20 10:56:00,
2013-11-20 06:00:00,30.2,14.3,27.37,West,270,1.1,3.4,51,0.00,,---,0.00,VWS V15.00,2013-11-20 11:00:00,
2013-11-20 06:02:00,30.0,13.6,27.37,WNW,292,0.0,1.1,50,0.00,,---,0.00,VWS V15.00,2013-11-20 11:02:00,
2013-11-20 06:05:00,30.0,13.2,27.37,WNW,292,1.3,1.3,49,0.00,,---,0.00,VWS V15.00,2013-11-20 11:05:00,
2013-11-20 06:07:00,29.8,13.5,27.37,WNW,292,1.6,2.0,50,0.00,,---,0.00,VWS V15.00,2013-11-20 11:07:00,
2013-11-20 06:10:00,29.8,13.9,27.37,WNW,292,1.1,2.5,51,0.00,,---,0.00,VWS V15.00,2013-11-20 11:10:00,
2013-11-20 06:12:00,29.7,13.8,27.37,SSW,202,1.1,1.6,51,0.00,,---,0.00,VWS V15.00,2013-11-20 11:12:00,
2013-11-20 06:15:00,29.7,14.2,27.37,WNW,292,2.5,2.5,52,0.00,,---,0.00,VWS V15.00,2013-11-20 11:15:00,
2013-11-20 06:17:00,29.5,14.0,27.37,SSE,158,2.5,2.5,52,0.00,,---,0.00,VWS V15.00,2013-11-20 11:17:00,
2013-11-20 06:20:00,29.5,13.6,27.37,ESE,112,0.0,2.5,51,0.00,,---,0.00,VWS V15.00,2013-11-20 11:20:00,
2013-11-20 06:22:00,29.3,13.0,27.37,ESE,112,0.0,0.0,50,0.00,,---,0.00,VWS V15.00,2013-11-20 11:22:00,
2013-11-20 06:25:00,29.1,12.8,27.37,NW,315,0.0,1.6,50,0.00,,---,0.00,VWS V15.00,2013-11-20 11:25:00,
2013-11-20 06:27:00,28.9,12.2,27.37,NNE,22,0.0,0.0,49,0.00,,---,0.00,VWS V15.00,2013-11-20 11:27:00,
2013-11-20 06:30:00,28.8,12.5,27.37,WSW,248,2.2,2.5,50,0.00,,---,0.00,VWS V15.00,2013-11-20 11:30:00,
2013-11-20 06:32:00,28.6,14.1,27.37,West,270,1.6,2.7,54,0.00,,---,0.00,VWS V15.00,2013-11-20 11:32:00,
2013-11-20 06:35:00,28.6,14.1,27.37,South,180,0.0,2.7,54,0.00,,---,0.00,VWS V15.00,2013-11-20 11:35:00,
2013-11-20 06:37:00,28.6,13.6,27.37,West,270,0.0,0.0,53,0.00,,---,0.00,VWS V15.00,2013-11-20 11:37:00,
2013-11-20 06:40:00,28.6,14.5,27.37,West,270,2.2,2.9,55,0.00,,---,0.00,VWS V15.00,2013-11-20 11:40:00,
2013-11-20 06:42:00,28.6,15.3,27.37,WNW,292,1.6,2.7,57,0.00,,---,0.00,VWS V15.00,2013-11-20 11:42:00,
2013-11-20 06:45:00,28.6,15.3,27.37,SW,225,1.1,2.7,57,0.00,,---,0.00,VWS V15.00,2013-11-20 11:45:00,
2013-11-20 06:47:00,28.6,15.3,27.37,WNW,292,1.1,2.0,57,0.00,,---,0.00,VWS V15.00,2013-11-20 11:47:00,
2013-11-20 06:50:00,28.6,14.5,27.37,WNW,292,0.0,2.0,55,0.00,,---,0.00,VWS V15.00,2013-11-20 11:50:00,
2013-11-20 06:52:00,28.6,14.1,27.37,WNW,292,0.0,0.0,54,0.00,,---,0.00,VWS V15.00,2013-11-20 11:52:00,
2013-11-20 06:55:00,28.4,13.9,27.37,WNW,292,1.6,1.6,54,0.00,,---,0.00,VWS V15.00,2013-11-20 11:55:00,
2013-11-20 06:57:00,28.4,14.7,27.40,WNW,292,2.2,2.5,56,0.00,,---,0.00,VWS V15.00,2013-11-20 11:57:00,
2013-11-20 07:00:00,28.4,14.7,27.40,SE,135,0.0,2.5,56,0.00,,---,0.00,VWS V15.00,2013-11-20 12:00:00,
2013-11-20 07:02:00,28.2,14.6,27.40,WSW,248,0.0,0.0,56,0.00,,---,0.00,VWS V15.00,2013-11-20 12:02:00,
2013-11-20 07:05:00,28.2,14.6,27.40,WNW,292,1.3,1.6,56,0.00,,---,0.00,VWS V15.00,2013-11-20 12:05:00,
2013-11-20 07:07:00,28.0,14.0,27.40,WNW,292,0.0,1.3,55,0.00,,---,0.00,VWS V15.00,2013-11-20 12:07:00,
2013-11-20 07:10:00,28.0,14.0,27.40,SSE,158,1.1,1.3,55,0.00,,---,0.00,VWS V15.00,2013-11-20 12:10:00,
2013-11-20 07:12:00,28.0,14.8,27.40,WNW,292,2.2,2.2,57,0.00,,---,0.00,VWS V15.00,2013-11-20 12:12:00,
2013-11-20 07:15:00,28.0,15.2,27.40,WSW,248,2.7,2.7,58,0.00,,---,0.00,VWS V15.00,2013-11-20 12:15:00,
2013-11-20 07:17:00,28.2,16.5,27.40,WSW,248,0.0,3.1,61,0.00,,---,0.00,VWS V15.00,2013-11-20 12:17:00,
2013-11-20 07:20:00,28.2,16.1,27.40,NW,315,1.3,3.1,60,0.00,,---,0.00,VWS V15.00,2013-11-20 12:20:00,
2013-11-20 07:22:00,28.0,15.2,27.40,NW,315,0.0,1.3,58,0.00,,---,0.00,VWS V15.00,2013-11-20 12:22:00,
2013-11-20 07:25:00,28.0,14.8,27.40,NW,315,0.0,1.3,57,0.00,,---,0.00,VWS V15.00,2013-11-20 12:25:00,
2013-11-20 07:27:00,28.0,14.4,27.40,NW,315,0.0,0.0,56,0.00,,---,0.00,VWS V15.00,2013-11-20 12:27:00,
2013-11-20 07:30:00,28.0,14.4,27.40,SE,135,1.1,1.3,56,0.00,,---,0.00,VWS V15.00,2013-11-20 12:30:00,
2013-11-20 07:32:00,27.9,14.2,27.40,SE,135,0.0,1.1,56,0.00,,---,0.00,VWS V15.00,2013-11-20 12:32:00,
2013-11-20 07:35:00,27.9,13.8,27.40,SE,135,0.0,0.0,55,0.00,,---,0.00,VWS V15.00,2013-11-20 12:35:00,
2013-11-20 07:37:00,27.7,13.6,27.40,SE,135,0.0,0.0,55,0.00,,---,0.00,VWS V15.00,2013-11-20 12:37:00,
2013-11-20 07:40:00,27.7,14.1,27.40,WNW,292,0.0,0.0,56,0.00,,---,0.00,VWS V15.00,2013-11-20 12:40:00,
2013-11-20 07:42:00,27.7,14.0,27.40,WNW,292,0.0,0.0,56,0.00,,---,0.00,VWS V15.00,2013-11-20 12:42:00,
2013-11-20 07:45:00,27.9,15.4,27.40,West,270,0.0,0.0,59,0.00,,---,0.00,VWS V15.00,2013-11-20 12:45:00,
2013-11-20 07:47:00,27.9,15.0,27.40,West,270,0.0,0.0,58,0.00,,---,0.00,VWS V15.00,2013-11-20 12:47:00,
2013-11-20 07:50:00,27.9,15.0,27.40,WNW,292,0.0,0.0,58,0.00,,---,0.00,VWS V15.00,2013-11-20 12:50:00,
2013-11-20 07:52:00,28.0,15.2,27.40,ESE,112,0.9,1.6,58,0.00,,---,0.00,VWS V15.00,2013-11-20 12:52:00,
2013-11-20 07:55:00,28.4,15.9,27.40,WSW,248,0.0,1.6,59,0.00,,---,0.00,VWS V15.00,2013-11-20 12:55:00,
2013-11-20 07:57:00,28.6,16.9,27.43,West,270,2.5,2.7,61,0.00,,---,0.00,VWS V15.00,2013-11-20 12:57:00,
2013-11-20 08:00:00,28.9,18.3,27.43,West,270,2.5,2.7,64,0.00,,---,0.00,VWS V15.00,2013-11-20 13:00:00,
2013-11-20 08:02:00,29.1,18.5,27.43,SE,135,2.0,2.5,64,0.00,,---,0.00,VWS V15.00,2013-11-20 13:02:00,
2013-11-20 08:05:00,29.3,18.3,27.43,ESE,112,0.0,2.5,63,0.00,,---,0.00,VWS V15.00,2013-11-20 13:05:00,
2013-11-20 08:07:00,29.5,17.7,27.43,South,180,0.0,0.0,61,0.00,,---,0.00,VWS V15.00,2013-11-20 13:07:00,
2013-11-20 08:10:00,29.7,17.5,27.43,East,90,1.1,2.7,60,0.00,,---,0.00,VWS V15.00,2013-11-20 13:10:00,
2013-11-20 08:12:00,30.0,17.8,27.43,NW,315,0.0,2.5,60,0.00,,---,0.00,VWS V15.00,2013-11-20 13:12:00,
2013-11-20 08:15:00,30.2,17.6,27.43,NW,315,0.0,2.5,59,0.00,,---,0.00,VWS V15.00,2013-11-20 13:15:00,
2013-11-20 08:17:00,30.7,18.1,27.43,WSW,248,1.6,1.6,59,0.00,,---,0.00,VWS V15.00,2013-11-20 13:17:00,
2013-11-20 08:20:00,30.9,17.9,27.43,WSW,248,2.0,2.2,58,0.00,,---,0.00,VWS V15.00,2013-11-20 13:20:00,
2013-11-20 08:22:00,31.1,17.2,27.43,WSW,248,1.1,2.2,56,0.00,,---,0.00,VWS V15.00,2013-11-20 13:22:00,
2013-11-20 08:25:00,31.3,17.4,27.43,WSW,248,0.0,2.2,56,0.00,,---,0.00,VWS V15.00,2013-11-20 13:25:00,
2013-11-20 08:27:00,31.5,17.2,27.43,South,180,0.0,0.9,55,0.00,,---,0.00,VWS V15.00,2013-11-20 13:27:00,
2013-11-20 08:30:00,31.8,17.1,27.43,West,270,1.3,2.0,54,0.00,,---,0.00,VWS V15.00,2013-11-20 13:30:00,
2013-11-20 08:32:00,32.2,17.0,27.43,WNW,292,1.3,2.0,53,0.00,,---,0.00,VWS V15.00,2013-11-20 13:32:00,
2013-11-20 08:35:00,32.4,17.2,27.43,WNW,292,0.0,2.0,53,0.00,,---,0.00,VWS V15.00,2013-11-20 13:35:00,
2013-11-20 08:37:00,32.7,17.0,27.43,SSE,158,0.0,2.7,52,0.00,,---,0.00,VWS V15.00,2013-11-20 13:37:00,
2013-11-20 08:40:00,32.9,16.8,27.43,SW,225,0.0,2.7,51,0.00,,---,0.00,VWS V15.00,2013-11-20 13:40:00,
2013-11-20 08:42:00,33.1,16.9,27.43,SSW,202,0.0,0.0,51,0.00,,---,0.00,VWS V15.00,2013-11-20 13:42:00,
2013-11-20 08:45:00,33.3,17.1,27.43,East,90,0.0,0.0,51,0.00,,---,0.00,VWS V15.00,2013-11-20 13:45:00,
2013-11-20 08:47:00,33.6,17.9,27.43,ESE,112,0.0,2.9,52,0.00,,---,0.00,VWS V15.00,2013-11-20 13:47:00,
2013-11-20 08:50:00,34.0,17.3,27.43,SSW,202,2.7,2.9,50,0.00,,---,0.00,VWS V15.00,2013-11-20 13:50:00,
2013-11-20 08:52:00,34.3,15.2,27.43,ESE,112,1.6,3.8,45,0.00,,---,0.00,VWS V15.00,2013-11-20 13:52:00,
2013-11-20 08:55:00,34.9,14.7,27.43,South,180,1.3,3.8,43,0.00,,---,0.00,VWS V15.00,2013-11-20 13:55:00,
2013-11-20 08:57:00,35.1,14.3,27.43,SW,225,0.0,1.6,42,0.00,,---,0.00,VWS V15.00,2013-11-20 13:57:00,
2013-11-20 09:00:00,35.4,14.1,27.43,SSE,158,3.1,3.4,41,0.00,,---,0.00,VWS V15.00,2013-11-20 14:00:00,
2013-11-20 09:02:00,35.6,13.7,27.43,WNW,292,3.1,3.1,40,0.00,,---,0.00,VWS V15.00,2013-11-20 14:02:00,
2013-11-20 09:05:00,36.1,14.2,27.43,SSE,158,3.1,3.1,40,0.00,,---,0.00,VWS V15.00,2013-11-20 14:05:00,
2013-11-20 09:07:00,36.1,14.2,27.43,WNW,292,0.0,3.1,40,0.00,,---,0.00,VWS V15.00,2013-11-20 14:07:00,
2013-11-20 09:10:00,36.3,14.3,27.43,West,270,2.0,3.1,40,0.00,,---,0.00,VWS V15.00,2013-11-20 14:10:00,
2013-11-20 09:12:00,36.7,14.1,27.40,SSE,158,1.3,2.2,39,0.00,,---,0.00,VWS V15.00,2013-11-20 14:12:00,
2013-11-20 09:15:00,36.9,12.4,27.40,SSE,158,2.2,4.0,36,0.00,,---,0.00,VWS V15.00,2013-11-20 14:15:00,
2013-11-20 09:17:00,37.0,13.2,27.40,SSE,158,1.3,2.2,37,0.00,,---,0.00,VWS V15.00,2013-11-20 14:17:00,
2013-11-20 09:20:00,37.4,13.5,27.40,ENE,68,0.9,4.3,37,0.00,,---,0.00,VWS V15.00,2013-11-20 14:20:00,
2013-11-20 09:22:00,37.9,14.0,27.40,SW,225,2.0,3.8,37,0.00,,---,0.00,VWS V15.00,2013-11-20 14:22:00,
2013-11-20 09:25:00,38.1,12.9,27.40,SSE,158,1.1,3.8,35,0.00,,---,0.00,VWS V15.00,2013-11-20 14:25:00,
2013-11-20 09:27:00,38.5,14.5,27.43,SSE,158,2.5,3.4,37,0.00,,---,0.00,VWS V15.00,2013-11-20 14:27:00,
2013-11-20 09:30:00,38.7,14.6,27.43,East,90,0.0,3.4,37,0.00,,---,0.00,VWS V15.00,2013-11-20 14:30:00,
2013-11-20 09:32:00,39.2,15.7,27.43,ESE,112,4.3,6.0,38,0.00,,---,0.00,VWS V15.00,2013-11-20 14:32:00,
2013-11-20 09:35:00,39.4,12.0,27.43,WSW,248,3.4,6.0,32,0.00,,---,0.00,VWS V15.00,2013-11-20 14:35:00,
2013-11-20 09:37:00,39.2,11.1,27.43,WNW,292,2.0,3.6,31,0.00,,---,0.00,VWS V15.00,2013-11-20 14:37:00,
2013-11-20 09:40:00,39.7,13.0,27.43,East,90,4.3,4.3,33,0.00,,---,0.00,VWS V15.00,2013-11-20 14:40:00,
2013-11-20 09:42:00,39.9,11.8,27.43,SSE,158,2.5,4.7,31,0.00,,---,0.00,VWS V15.00,2013-11-20 14:42:00,
2013-11-20 09:45:00,40.1,12.6,27.43,ESE,112,2.7,4.7,32,0.00,,---,0.00,VWS V15.00,2013-11-20 14:45:00,
2013-11-20 09:47:00,40.3,12.1,27.43,SE,135,1.3,3.4,31,0.00,,---,0.00,VWS V15.00,2013-11-20 14:47:00,
2013-11-20 09:50:00,40.3,12.1,27.43,SE,135,2.9,3.6,31,0.00,,---,0.00,VWS V15.00,2013-11-20 14:50:00,
2013-11-20 09:52:00,40.6,12.4,27.43,SSE,158,2.7,4.0,31,0.00,,---,0.00,VWS V15.00,2013-11-20 14:52:00,
2013-11-20 09:55:00,40.8,12.5,27.43,SE,135,3.8,4.9,31,0.00,,---,0.00,VWS V15.00,2013-11-20 14:55:00,
2013-11-20 09:57:00,41.0,12.0,27.43,SSE,158,2.7,4.0,30,0.00,,---,0.00,VWS V15.00,2013-11-20 14:57:00,
2013-11-20 10:00:00,41.2,12.9,27.43,South,180,0.9,4.0,31,0.00,,---,0.00,VWS V15.00,2013-11-20 15:00:00,
2013-11-20 10:02:00,41.4,12.3,27.43,ESE,112,0.9,4.0,30,0.00,,---,0.00,VWS V15.00,2013-11-20 15:02:00,
2013-11-20 10:05:00,41.7,12.6,27.43,NNE,22,1.3,4.0,30,0.00,,---,0.00,VWS V15.00,2013-11-20 15:05:00,
2013-11-20 10:07:00,41.9,12.7,27.43,SE,135,2.9,4.3,30,0.00,,---,0.00,VWS V15.00,2013-11-20 15:07:00,
2013-11-20 10:12:00,42.3,12.3,27.40,SSE,158,2.0,4.7,29,0.00,,---,0.00,VWS V15.00,2013-11-20 15:12:00,
2013-11-20 10:15:00,42.3,12.3,27.40,WNW,292,1.1,4.7,29,0.00,,---,0.00,VWS V15.00,2013-11-20 15:15:00,
2013-11-20 10:17:00,42.6,12.6,27.40,SSE,158,1.6,2.9,29,0.00,,---,0.00,VWS V15.00,2013-11-20 15:17:00,
2013-11-20 10:20:00,42.4,12.4,27.40,South,180,3.4,6.5,29,0.00,,---,0.00,VWS V15.00,2013-11-20 15:20:00,
2013-11-20 10:22:00,42.8,12.8,27.40,SE,135,1.6,3.6,29,0.00,,---,0.00,VWS V15.00,2013-11-20 15:22:00,
2013-11-20 10:25:00,43.2,13.1,27.40,ENE,68,1.6,4.9,29,0.00,,---,0.00,VWS V15.00,2013-11-20 15:25:00,
2013-11-20 10:27:00,43.3,13.2,27.43,ENE,68,0.0,3.6,29,0.00,,---,0.00,VWS V15.00,2013-11-20 15:27:00,
2013-11-20 10:30:00,43.7,13.5,27.43,SSE,158,4.3,4.5,29,0.00,,---,0.00,VWS V15.00,2013-11-20 15:30:00,
2013-11-20 10:32:00,44.1,13.9,27.43,ENE,68,4.3,4.3,29,0.00,,---,0.00,VWS V15.00,2013-11-20 15:32:00,
2013-11-20 10:35:00,44.2,13.2,27.43,ESE,112,3.1,4.3,28,0.00,,---,0.00,VWS V15.00,2013-11-20 15:35:00,
2013-11-20 10:37:00,44.4,14.2,27.43,ESE,112,2.7,3.8,29,0.00,,---,0.00,VWS V15.00,2013-11-20 15:37:00,
2013-11-20 10:40:00,44.6,13.5,27.43,SSE,158,2.9,3.8,28,0.00,,---,0.00,VWS V15.00,2013-11-20 15:40:00,
2013-11-20 10:42:00,44.8,13.7,27.43,NNW,338,2.2,4.3,28,0.00,,---,0.00,VWS V15.00,2013-11-20 15:42:00,
2013-11-20 10:45:00,45.0,13.8,27.43,SSE,158,3.6,4.3,28,0.00,,---,0.00,VWS V15.00,2013-11-20 15:45:00,
2013-11-20 10:47:00,45.1,14.0,27.43,ESE,112,2.5,3.6,28,0.00,,---,0.00,VWS V15.00,2013-11-20 15:47:00,
2013-11-20 10:50:00,45.3,14.1,27.43,NNE,22,2.9,4.9,28,0.00,,---,0.00,VWS V15.00,2013-11-20 15:50:00,
2013-11-20 10:52:00,45.5,14.3,27.43,ENE,68,3.1,3.8,28,0.00,,---,0.00,VWS V15.00,2013-11-20 15:52:00,
2013-11-20 10:55:00,45.3,13.3,27.43,SE,135,4.0,4.0,27,0.00,,---,0.00,VWS V15.00,2013-11-20 15:55:00,
2013-11-20 10:57:00,45.0,11.3,27.43,ENE,68,3.6,4.0,25,0.00,,---,0.00,VWS V15.00,2013-11-20 15:57:00,
2013-11-20 11:00:00,45.1,13.2,27.43,West,270,1.3,4.3,27,0.00,,---,0.00,VWS V15.00,2013-11-20 16:00:00,
2013-11-20 11:02:00,45.3,11.6,27.43,East,90,1.6,3.1,25,0.00,,---,0.00,VWS V15.00,2013-11-20 16:02:00,
2013-11-20 11:05:00,45.9,13.8,27.43,NNW,338,1.3,3.1,27,0.00,,---,0.00,VWS V15.00,2013-11-20 16:05:00,
2013-11-20 11:07:00,46.2,14.9,27.43,ENE,68,2.5,4.0,28,0.00,,---,0.00,VWS V15.00,2013-11-20 16:07:00,
2013-11-20 11:10:00,46.6,14.4,27.43,ENE,68,1.1,4.0,27,0.00,,---,0.00,VWS V15.00,2013-11-20 16:10:00,
2013-11-20 11:12:00,46.8,14.6,27.43,ENE,68,1.1,6.0,27,0.00,,---,0.00,VWS V15.00,2013-11-20 16:12:00,
2013-11-20 11:15:00,46.9,14.7,27.43,ESE,112,2.0,6.0,27,0.00,,---,0.00,VWS V15.00,2013-11-20 16:15:00,
2013-11-20 11:17:00,47.3,15.0,27.43,ENE,68,4.3,4.9,27,0.00,,---,0.00,VWS V15.00,2013-11-20 16:17:00,
2013-11-20 11:20:00,47.7,15.3,27.43,East,90,1.1,4.9,27,0.00,,---,0.00,VWS V15.00,2013-11-20 16:20:00,
2013-11-20 11:22:00,47.8,15.5,27.43,ESE,112,4.0,4.9,27,0.00,,---,0.00,VWS V15.00,2013-11-20 16:22:00,
2013-11-20 11:25:00,47.8,12.8,27.43,South,180,4.9,6.0,24,0.00,,---,0.00,VWS V15.00,2013-11-20 16:25:00,
2013-11-20 11:27:00,47.8,15.5,27.43,East,90,3.4,4.9,27,0.00,,---,0.00,VWS V15.00,2013-11-20 16:27:00,
2013-11-20 11:30:00,47.8,12.8,27.43,East,90,3.6,6.3,24,0.00,,---,0.00,VWS V15.00,2013-11-20 16:30:00,
2013-11-20 11:32:00,47.7,12.7,27.43,East,90,3.4,4.3,24,0.00,,---,0.00,VWS V15.00,2013-11-20 16:32:00,
2013-11-20 11:35:00,47.7,10.7,27.43,SW,225,1.1,4.9,22,0.00,,---,0.00,VWS V15.00,2013-11-20 16:35:00,
2013-11-20 11:37:00,47.3,7.1,27.43,West,270,3.8,5.4,19,0.00,,---,0.00,VWS V15.00,2013-11-20 16:37:00,
2013-11-20 11:40:00,47.7,12.7,27.43,ESE,112,2.5,5.4,24,0.00,,---,0.00,VWS V15.00,2013-11-20 16:40:00,
2013-11-20 11:42:00,48.0,11.0,27.40,SSE,158,3.6,4.3,22,0.00,,---,0.00,VWS V15.00,2013-11-20 16:42:00,
2013-11-20 11:45:00,47.8,10.9,27.40,SE,135,3.1,4.3,22,0.00,,---,0.00,VWS V15.00,2013-11-20 16:45:00,
2013-11-20 11:47:00,48.0,11.0,27.40,ENE,68,2.7,4.0,22,0.00,,---,0.00,VWS V15.00,2013-11-20 16:47:00,
2013-11-20 11:50:00,48.4,10.3,27.40,East,90,3.6,4.9,21,0.00,,---,0.00,VWS V15.00,2013-11-20 16:50:00,
2013-11-20 11:52:00,48.6,10.4,27.40,ENE,68,4.0,4.9,21,0.00,,---,0.00,VWS V15.00,2013-11-20 16:52:00,
2013-11-20 11:55:00,48.7,10.6,27.40,ENE,68,2.0,4.9,21,0.00,,---,0.00,VWS V15.00,2013-11-20 16:55:00,
2013-11-20 11:57:00,49.3,11.0,27.37,East,90,3.8,4.3,21,0.00,,---,0.00,VWS V15.00,2013-11-20 16:57:00,
2013-11-20 12:00:00,49.5,11.2,27.37,ENE,68,2.2,4.3,21,0.00,,---,0.00,VWS V15.00,2013-11-20 17:00:00,
2013-11-20 12:02:00,49.8,14.5,27.37,ESE,112,3.6,3.8,24,0.00,,---,0.00,VWS V15.00,2013-11-20 17:02:00,
2013-11-20 12:05:00,50.2,11.8,27.37,East,90,2.9,3.8,21,0.00,,---,0.00,VWS V15.00,2013-11-20 17:05:00,
2013-11-20 12:07:00,50.2,11.8,27.37,East,90,2.9,6.3,21,0.00,,---,0.00,VWS V15.00,2013-11-20 17:07:00,
2013-11-20 12:10:00,50.0,9.4,27.37,East,90,3.1,6.3,19,0.00,,---,0.00,VWS V15.00,2013-11-20 17:10:00,
2013-11-20 12:12:00,50.0,11.6,27.37,ENE,68,1.3,3.8,21,0.00,,---,0.00,VWS V15.00,2013-11-20 17:12:00,
2013-11-20 12:15:00,50.2,11.8,27.37,ESE,112,3.4,5.4,21,0.00,,---,0.00,VWS V15.00,2013-11-20 17:15:00,
2013-11-20 12:17:00,50.0,11.6,27.37,ESE,112,2.7,5.8,21,0.00,,---,0.00,VWS V15.00,2013-11-20 17:17:00,
2013-11-20 12:20:00,50.2,9.5,27.37,ENE,68,3.6,5.8,19,0.00,,---,0.00,VWS V15.00,2013-11-20 17:20:00,
2013-11-20 12:22:00,50.0,9.4,27.37,West,270,0.0,3.8,19,0.00,,---,0.00,VWS V15.00,2013-11-20 17:22:00,
2013-11-20 12:25:00,50.2,9.5,27.37,East,90,1.1,3.8,19,0.00,,---,0.00,VWS V15.00,2013-11-20 17:25:00,
2013-11-20 12:27:00,49.6,9.1,27.37,WSW,248,2.7,3.6,19,0.00,,---,0.00,VWS V15.00,2013-11-20 17:27:00,
2013-11-20 12:30:00,49.8,9.2,27.37,ENE,68,0.0,4.3,19,0.00,,---,0.00,VWS V15.00,2013-11-20 17:30:00,
2013-11-20 12:32:00,50.0,9.4,27.37,SE,135,2.0,5.6,19,0.00,,---,0.00,VWS V15.00,2013-11-20 17:32:00,
2013-11-20 12:35:00,50.0,9.4,27.37,ENE,68,0.9,5.6,19,0.00,,---,0.00,VWS V15.00,2013-11-20 17:35:00,
2013-11-20 12:37:00,50.4,9.7,27.37,SE,135,1.3,3.1,19,0.00,,---,0.00,VWS V15.00,2013-11-20 17:37:00,
2013-11-20 12:40:00,50.5,9.8,27.37,SSW,202,1.6,3.1,19,0.00,,---,0.00,VWS V15.00,2013-11-20 17:40:00,
2013-11-20 12:42:00,51.1,10.3,27.37,ESE,112,3.1,4.9,19,0.00,,---,0.00,VWS V15.00,2013-11-20 17:42:00,
2013-11-20 12:45:00,50.9,10.1,27.37,SE,135,3.6,6.0,19,0.00,,---,0.00,VWS V15.00,2013-11-20 17:45:00,
2013-11-20 12:47:00,50.9,10.1,27.37,East,90,1.3,3.6,19,0.00,,---,0.00,VWS V15.00,2013-11-20 17:47:00,
2013-11-20 12:50:00,51.3,10.4,27.37,ESE,112,6.3,6.5,19,0.00,,---,0.00,VWS V15.00,2013-11-20 17:50:00,
2013-11-20 12:52:00,50.9,10.1,27.37,SSE,158,2.0,6.3,19,0.00,,---,0.00,VWS V15.00,2013-11-20 17:52:00,
2013-11-20 12:55:00,51.1,10.3,27.37,ESE,112,3.8,6.3,19,0.00,,---,0.00,VWS V15.00,2013-11-20 17:55:00,
2013-11-20 12:57:00,51.3,10.4,27.37,ESE,112,4.5,4.5,19,0.00,,---,0.00,VWS V15.00,2013-11-20 17:57:00,
2013-11-20 13:00:00,51.4,10.6,27.37,East,90,3.1,4.5,19,0.00,,---,0.00,VWS V15.00,2013-11-20 18:00:00,
2013-11-20 13:02:00,51.6,10.7,27.37,ESE,112,4.5,4.5,19,0.00,,---,0.00,VWS V15.00,2013-11-20 18:02:00,
2013-11-20 13:05:00,51.8,9.7,27.37,ESE,112,4.0,6.5,18,0.00,,---,0.00,VWS V15.00,2013-11-20 18:05:00,
2013-11-20 13:07:00,51.6,10.7,27.37,ESE,112,3.1,5.6,19,0.00,,---,0.00,VWS V15.00,2013-11-20 18:07:00,
2013-11-20 13:10:00,51.4,6.8,27.37,ESE,112,3.8,6.3,16,0.00,,---,0.00,VWS V15.00,2013-11-20 18:10:00,
2013-11-20 13:12:00,51.6,10.7,27.37,SSE,158,4.9,4.9,19,0.00,,---,0.00,VWS V15.00,2013-11-20 18:12:00,
2013-11-20 13:15:00,51.8,7.1,27.37,SE,135,2.9,5.6,16,0.00,,---,0.00,VWS V15.00,2013-11-20 18:15:00,
2013-11-20 13:17:00,51.4,6.8,27.37,SE,135,2.7,5.8,16,0.00,,---,0.00,VWS V15.00,2013-11-20 18:17:00,
2013-11-20 13:20:00,51.8,9.7,27.37,ENE,68,3.1,5.8,18,0.00,,---,0.00,VWS V15.00,2013-11-20 18:20:00,
2013-11-20 13:22:00,52.2,10.0,27.37,SE,135,2.9,5.6,18,0.00,,---,0.00,VWS V15.00,2013-11-20 18:22:00,
2013-11-20 13:25:00,52.5,10.2,27.37,East,90,3.6,5.6,18,0.00,,---,0.00,VWS V15.00,2013-11-20 18:25:00,
2013-11-20 13:27:00,52.7,7.8,27.37,NE,45,0.9,3.6,16,0.00,,---,0.00,VWS V15.00,2013-11-20 18:27:00,
2013-11-20 13:30:00,52.9,7.9,27.37,ESE,112,2.0,3.6,16,0.00,,---,0.00,VWS V15.00,2013-11-20 18:30:00,
2013-11-20 13:32:00,53.1,10.7,27.37,ESE,112,2.2,5.8,18,0.00,,---,0.00,VWS V15.00,2013-11-20 18:32:00,
2013-11-20 13:35:00,52.9,7.9,27.37,ESE,112,1.1,6.0,16,0.00,,---,0.00,VWS V15.00,2013-11-20 18:35:00,
2013-11-20 13:37:00,53.1,8.1,27.37,SSE,158,1.3,3.4,16,0.00,,---,0.00,VWS V15.00,2013-11-20 18:37:00,
2013-11-20 13:40:00,52.7,7.8,27.37,SSE,158,4.0,6.3,16,0.00,,---,0.00,VWS V15.00,2013-11-20 18:40:00,
2013-11-20 13:42:00,52.7,7.8,27.34,East,90,3.6,4.0,16,0.00,,---,0.00,VWS V15.00,2013-11-20 18:42:00,
2013-11-20 13:45:00,53.1,8.1,27.34,SE,135,2.2,4.0,16,0.00,,---,0.00,VWS V15.00,2013-11-20 18:45:00,
2013-11-20 13:47:00,53.4,8.4,27.34,NE,45,3.4,4.3,16,0.00,,---,0.00,VWS V15.00,2013-11-20 18:47:00,
2013-11-20 13:50:00,53.6,7.1,27.34,SE,135,3.8,4.3,15,0.00,,---,0.00,VWS V15.00,2013-11-20 18:50:00,
2013-11-20 13:52:00,53.4,8.4,27.34,ESE,112,2.7,4.0,16,0.00,,---,0.00,VWS V15.00,2013-11-20 18:52:00,
2013-11-20 13:55:00,53.8,7.2,27.34,SSE,158,2.0,4.0,15,0.00,,---,0.00,VWS V15.00,2013-11-20 18:55:00,
2013-11-20 13:57:00,53.8,7.2,27.34,SSE,158,2.5,3.4,15,0.00,,---,0.00,VWS V15.00,2013-11-20 18:57:00,
2013-11-20 14:00:00,54.1,7.5,27.34,ENE,68,4.7,4.7,15,0.00,,---,0.00,VWS V15.00,2013-11-20 19:00:00,
2013-11-20 14:02:00,54.0,7.4,27.34,ESE,112,2.0,4.7,15,0.00,,---,0.00,VWS V15.00,2013-11-20 19:02:00,
2013-11-20 14:05:00,53.8,7.2,27.34,ENE,68,2.2,6.0,15,0.00,,---,0.00,VWS V15.00,2013-11-20 19:05:00,
2013-11-20 14:07:00,54.1,7.5,27.34,NE,45,1.6,2.7,15,0.00,,---,0.00,VWS V15.00,2013-11-20 19:07:00,
2013-11-20 14:10:00,54.5,7.8,27.34,ENE,68,2.0,5.4,15,0.00,,---,0.00,VWS V15.00,2013-11-20 19:10:00,
2013-11-20 14:12:00,54.0,7.4,27.34,SE,135,2.7,4.0,15,0.00,,---,0.00,VWS V15.00,2013-11-20 19:12:00,
2013-11-20 14:15:00,52.9,7.9,27.34,SSE,158,2.0,4.9,16,0.00,,---,0.00,VWS V15.00,2013-11-20 19:15:00,
2013-11-20 14:17:00,53.2,8.2,27.34,NNW,338,3.1,4.0,16,0.00,,---,0.00,VWS V15.00,2013-11-20 19:17:00,
2013-11-20 14:20:00,53.6,7.1,27.34,SE,135,3.6,4.0,15,0.00,,---,0.00,VWS V15.00,2013-11-20 19:20:00,
2013-11-20 14:22:00,53.8,7.2,27.34,ESE,112,4.0,4.5,15,0.00,,---,0.00,VWS V15.00,2013-11-20 19:22:00,
2013-11-20 14:25:00,54.1,7.5,27.34,East,90,2.9,4.5,15,0.00,,---,0.00,VWS V15.00,2013-11-20 19:25:00,
2013-11-20 14:27:00,54.7,8.0,27.34,East,90,2.9,3.1,15,0.00,,---,0.00,VWS V15.00,2013-11-20 19:27:00,
2013-11-20 14:30:00,54.9,8.1,27.34,ENE,68,3.4,3.4,15,0.00,,---,0.00,VWS V15.00,2013-11-20 19:30:00,
2013-11-20 14:32:00,55.0,8.2,27.34,ENE,68,2.2,4.0,15,0.00,,---,0.00,VWS V15.00,2013-11-20 19:32:00,
2013-11-20 14:35:00,55.2,8.4,27.34,SE,135,3.8,4.0,15,0.00,,---,0.00,VWS V15.00,2013-11-20 19:35:00,
2013-11-20 14:37:00,55.2,8.4,27.34,South,180,2.2,3.8,15,0.00,,---,0.00,VWS V15.00,2013-11-20 19:37:00,
2013-11-20 14:40:00,55.2,8.4,27.34,SE,135,2.7,4.9,15,0.00,,---,0.00,VWS V15.00,2013-11-20 19:40:00,
2013-11-20 14:42:00,55.0,8.2,27.34,SSE,158,1.6,3.6,15,0.00,,---,0.00,VWS V15.00,2013-11-20 19:42:00,
2013-11-20 14:45:00,55.0,8.2,27.34,East,90,1.1,3.6,15,0.00,,---,0.00,VWS V15.00,2013-11-20 19:45:00,
2013-11-20 14:47:00,55.0,8.2,27.34,SSE,158,4.0,5.4,15,0.00,,---,0.00,VWS V15.00,2013-11-20 19:47:00,
2013-11-20 14:50:00,54.5,7.8,27.34,ESE,112,1.3,5.4,15,0.00,,---,0.00,VWS V15.00,2013-11-20 19:50:00,
2013-11-20 14:52:00,54.5,7.8,27.34,WNW,292,1.1,4.0,15,0.00,,---,0.00,VWS V15.00,2013-11-20 19:52:00,
2013-11-20 14:55:00,54.7,8.0,27.34,ESE,112,2.9,4.0,15,0.00,,---,0.00,VWS V15.00,2013-11-20 19:55:00,
2013-11-20 14:57:00,54.9,8.1,27.31,NNW,338,3.8,3.8,15,0.00,,---,0.00,VWS V15.00,2013-11-20 19:57:00,
2013-11-20 15:00:00,54.9,8.1,27.31,West,270,1.6,3.8,15,0.00,,---,0.00,VWS V15.00,2013-11-20 20:00:00,
2013-11-20 15:01:00,55.0,8.2,27.31,SE,135,4.3,4.3,15,0.00,,---,0.00,VWS V15.00,2013-11-20 20:01:00,
2013-11-20 15:05:00,54.7,8.0,27.31,ESE,112,2.9,4.3,15,0.00,,---,0.00,VWS V15.00,2013-11-20 20:05:00,
2013-11-20 15:06:00,54.9,8.1,27.31,WNW,292,2.0,2.9,15,0.00,,---,0.00,VWS V15.00,2013-11-20 20:06:00,
2013-11-20 15:10:00,54.3,7.7,27.31,WSW,248,2.5,3.6,15,0.00,,---,0.00,VWS V15.00,2013-11-20 20:10:00,
2013-11-20 15:11:00,53.8,7.2,27.31,SSW,202,2.0,7.2,15,0.00,,---,0.00,VWS V15.00,2013-11-20 20:11:00,
2013-11-20 15:15:00,54.0,7.4,27.31,SE,135,2.0,7.2,15,0.00,,---,0.00,VWS V15.00,2013-11-20 20:15:00,
2013-11-20 15:16:00,54.1,7.5,27.31,NE,45,1.3,4.7,15,0.00,,---,0.00,VWS V15.00,2013-11-20 20:16:00,
2013-11-20 15:20:00,54.0,7.4,27.31,South,180,5.8,5.8,15,0.00,,---,0.00,VWS V15.00,2013-11-20 20:20:00,
2013-11-20 15:21:00,53.6,7.1,27.31,WNW,292,0.0,5.8,15,0.00,,---,0.00,VWS V15.00,2013-11-20 20:21:00,
2013-11-20 15:25:00,54.0,7.4,27.31,WSW,248,2.2,5.8,15,0.00,,---,0.00,VWS V15.00,2013-11-20 20:25:00,
2013-11-20 15:26:00,54.3,7.7,27.31,WNW,292,1.6,3.1,15,0.00,,---,0.00,VWS V15.00,2013-11-20 20:26:00,
2013-11-20 15:30:00,54.3,7.7,27.31,ENE,68,1.6,3.4,15,0.00,,---,0.00,VWS V15.00,2013-11-20 20:30:00,
2013-11-20 15:31:00,54.1,7.5,27.31,WSW,248,2.5,3.1,15,0.00,,---,0.00,VWS V15.00,2013-11-20 20:31:00,
2013-11-20 15:35:00,53.2,8.2,27.31,West,270,4.9,6.3,16,0.00,,---,0.00,VWS V15.00,2013-11-20 20:35:00,
2013-11-20 15:36:00,52.9,7.9,27.31,WSW,248,4.3,6.0,16,0.00,,---,0.00,VWS V15.00,2013-11-20 20:36:00,
2013-11-20 15:40:00,52.2,7.3,27.31,WSW,248,5.6,6.3,16,0.00,,---,0.00,VWS V15.00,2013-11-20 20:40:00,
2013-11-20 15:41:00,52.2,7.3,27.31,WSW,248,3.6,5.6,16,0.00,,---,0.00,VWS V15.00,2013-11-20 20:41:00,
2013-11-20 15:45:00,52.3,7.5,27.31,WSW,248,3.4,6.0,16,0.00,,---,0.00,VWS V15.00,2013-11-20 20:45:00,
2013-11-20 15:46:00,51.8,7.1,27.31,SW,225,6.5,6.5,16,0.00,,---,0.00,VWS V15.00,2013-11-20 20:46:00,
2013-11-20 15:50:00,51.4,6.8,27.31,WSW,248,3.6,6.7,16,0.00,,---,0.00,VWS V15.00,2013-11-20 20:50:00,
2013-11-20 15:51:00,51.1,6.5,27.31,SSW,202,4.9,7.4,16,0.00,,---,0.00,VWS V15.00,2013-11-20 20:51:00,
2013-11-20 15:55:00,50.9,6.3,27.31,WSW,248,6.0,8.1,16,0.00,,---,0.00,VWS V15.00,2013-11-20 20:55:00,
2013-11-20 15:56:00,50.7,6.2,27.31,WSW,248,3.8,6.0,16,0.00,,---,0.00,VWS V15.00,2013-11-20 20:56:00,
2013-11-20 16:00:00,50.9,6.3,27.31,WNW,292,5.8,6.0,16,0.00,,---,0.00,VWS V15.00,2013-11-20 21:00:00,
2013-11-20 16:01:00,51.1,6.5,27.31,WSW,248,4.3,7.6,16,0.00,,---,0.00,VWS V15.00,2013-11-20 21:01:00,
2013-11-20 16:05:00,51.1,6.5,27.31,WSW,248,4.9,7.6,16,0.00,,---,0.00,VWS V15.00,2013-11-20 21:05:00,
2013-11-20 16:06:00,50.5,6.0,27.31,WSW,248,3.8,5.6,16,0.00,,---,0.00,VWS V15.00,2013-11-20 21:06:00,
2013-11-20 16:10:00,49.8,5.4,27.31,WSW,248,3.8,5.6,16,0.00,,---,0.00,VWS V15.00,2013-11-20 21:10:00,
2013-11-20 16:11:00,49.5,5.2,27.34,West,270,4.3,4.3,16,0.00,,---,0.00,VWS V15.00,2013-11-20 21:11:00,
2013-11-20 16:15:00,49.3,5.0,27.34,West,270,2.5,6.0,16,0.00,,---,0.00,VWS V15.00,2013-11-20 21:15:00,
2013-11-20 16:16:00,48.6,4.4,27.34,WSW,248,3.8,5.4,16,0.00,,---,0.00,VWS V15.00,2013-11-20 21:16:00,
2013-11-20 16:20:00,48.6,4.4,27.34,WSW,248,2.7,5.4,16,0.00,,---,0.00,VWS V15.00,2013-11-20 21:20:00,
2013-11-20 16:21:00,48.2,4.1,27.34,WSW,248,4.0,5.8,16,0.00,,---,0.00,VWS V15.00,2013-11-20 21:21:00,
2013-11-20 16:25:00,47.7,5.0,27.34,WSW,248,3.4,5.8,17,0.00,,---,0.00,VWS V15.00,2013-11-20 21:25:00,
2013-11-20 16:26:00,47.7,5.0,27.34,WSW,248,3.1,4.3,17,0.00,,---,0.00,VWS V15.00,2013-11-20 21:26:00,
2013-11-20 16:30:00,47.5,4.9,27.34,WSW,248,2.5,4.3,17,0.00,,---,0.00,VWS V15.00,2013-11-20 21:30:00,
2013-11-20 16:31:00,47.1,4.6,27.34,WNW,292,2.5,3.1,17,0.00,,---,0.00,VWS V15.00,2013-11-20 21:31:00,
2013-11-20 16:35:00,46.4,4.0,27.34,SSE,158,2.2,3.6,17,0.00,,---,0.00,VWS V15.00,2013-11-20 21:35:00,
2013-11-20 16:36:00,46.6,4.1,27.34,West,270,2.2,3.1,17,0.00,,---,0.00,VWS V15.00,2013-11-20 21:36:00,
2013-11-20 16:40:00,46.4,4.0,27.34,SSW,202,2.9,3.1,17,0.00,,---,0.00,VWS V15.00,2013-11-20 21:40:00,
2013-11-20 16:41:00,46.2,3.8,27.34,SSW,202,2.0,4.0,17,0.00,,---,0.00,VWS V15.00,2013-11-20 21:41:00,
2013-11-20 16:45:00,45.9,3.5,27.34,SSW,202,3.8,5.4,17,0.00,,---,0.00,VWS V15.00,2013-11-20 21:45:00,
2013-11-20 16:46:00,46.0,3.7,27.34,SW,225,2.9,6.3,17,0.00,,---,0.00,VWS V15.00,2013-11-20 21:46:00,
2013-11-20 16:50:00,46.0,3.7,27.34,WSW,248,3.8,6.3,17,0.00,,---,0.00,VWS V15.00,2013-11-20 21:50:00,
2013-11-20 16:51:00,46.0,3.7,27.34,SSE,158,2.7,3.8,17,0.00,,---,0.00,VWS V15.00,2013-11-20 21:51:00,
2013-11-20 16:55:00,45.7,3.4,27.34,SSW,202,3.1,3.8,17,0.00,,---,0.00,VWS V15.00,2013-11-20 21:55:00,
2013-11-20 16:56:00,45.1,2.9,27.34,SW,225,2.5,3.8,17,0.00,,---,0.00,VWS V15.00,2013-11-20 21:56:00,
2013-11-20 17:00:00,44.8,2.6,27.34,WSW,248,3.4,4.3,17,0.00,,---,0.00,VWS V15.00,2013-11-20 22:00:00,
2013-11-20 17:01:00,44.6,2.5,27.34,WSW,248,3.4,4.0,17,0.00,,---,0.00,VWS V15.00,2013-11-20 22:01:00,
2013-11-20 17:05:00,44.1,3.3,27.34,WSW,248,0.0,4.0,18,0.00,,---,0.00,VWS V15.00,2013-11-20 22:05:00,
2013-11-20 17:06:00,43.9,3.1,27.34,West,270,3.4,4.0,18,0.00,,---,0.00,VWS V15.00,2013-11-20 22:06:00,
2013-11-20 17:10:00,43.3,5.0,27.34,SSW,202,2.2,4.0,20,0.00,,---,0.00,VWS V15.00,2013-11-20 22:10:00,
2013-11-20 17:11:00,43.2,4.8,27.34,WSW,248,2.7,3.1,20,0.00,,---,0.00,VWS V15.00,2013-11-20 22:11:00,
2013-11-20 17:15:00,43.0,4.7,27.34,WNW,292,2.0,3.1,20,0.00,,---,0.00,VWS V15.00,2013-11-20 22:15:00,
2013-11-20 17:16:00,42.8,4.5,27.34,WSW,248,2.7,3.1,20,0.00,,---,0.00,VWS V15.00,2013-11-20 22:16:00,
2013-11-20 17:20:00,42.4,5.3,27.34,WSW,248,2.0,3.1,21,0.00,,---,0.00,VWS V15.00,2013-11-20 22:20:00,
2013-11-20 17:21:00,42.3,5.1,27.34,West,270,1.3,3.1,21,0.00,,---,0.00,VWS V15.00,2013-11-20 22:21:00,
2013-11-20 17:25:00,41.7,6.7,27.34,WSW,248,3.4,3.4,23,0.00,,---,0.00,VWS V15.00,2013-11-20 22:25:00,
2013-11-20 17:26:00,41.5,6.5,27.34,West,270,2.7,3.4,23,0.00,,---,0.00,VWS V15.00,2013-11-20 22:26:00,
2013-11-20 17:30:00,41.0,6.1,27.34,WSW,248,2.9,3.8,23,0.00,,---,0.00,VWS V15.00,2013-11-20 22:30:00,
2013-11-20 17:31:00,40.6,8.4,27.34,WSW,248,1.1,3.8,26,0.00,,---,0.00,VWS V15.00,2013-11-20 22:31:00,
2013-11-20 17:35:00,40.1,9.6,27.34,WNW,292,3.1,4.0,28,0.00,,---,0.00,VWS V15.00,2013-11-20 22:35:00,
2013-11-20 17:36:00,40.3,10.6,27.34,SW,225,2.9,3.6,29,0.00,,---,0.00,VWS V15.00,2013-11-20 22:36:00,
2013-11-20 17:40:00,40.3,10.6,27.34,WSW,248,2.0,3.6,29,0.00,,---,0.00,VWS V15.00,2013-11-20 22:40:00,
2013-11-20 17:41:00,39.9,10.2,27.37,WNW,292,3.1,3.8,29,0.00,,---,0.00,VWS V15.00,2013-11-20 22:41:00,
2013-11-20 17:45:00,39.7,10.1,27.37,WSW,248,2.9,3.8,29,0.00,,---,0.00,VWS V15.00,2013-11-20 22:45:00,
2013-11-20 17:46:00,39.6,9.9,27.37,WSW,248,2.5,2.9,29,0.00,,---,0.00,VWS V15.00,2013-11-20 22:46:00,
2013-11-20 17:50:00,39.2,9.6,27.37,WNW,292,2.2,3.1,29,0.00,,---,0.00,VWS V15.00,2013-11-20 22:50:00,
2013-11-20 17:51:00,39.4,9.8,27.37,WSW,248,0.0,2.2,29,0.00,,---,0.00,VWS V15.00,2013-11-20 22:51:00,
2013-11-20 17:55:00,39.0,9.5,27.37,WNW,292,2.0,2.2,29,0.00,,---,0.00,VWS V15.00,2013-11-20 22:55:00,
2013-11-20 17:56:00,39.2,9.6,27.37,West,270,2.5,3.1,29,0.00,,---,0.00,VWS V15.00,2013-11-20 22:56:00,
2013-11-20 18:00:00,39.2,9.6,27.37,West,270,0.0,3.1,29,0.00,,---,0.00,VWS V15.00,2013-11-20 23:00:00,
2013-11-20 18:01:00,39.2,9.6,27.37,WSW,248,2.7,2.7,29,0.00,,---,0.00,VWS V15.00,2013-11-20 23:01:00,
2013-11-20 18:05:00,39.4,9.8,27.37,WSW,248,3.8,5.4,29,0.00,,---,0.00,VWS V15.00,2013-11-20 23:05:00,
2013-11-20 18:06:00,39.6,9.9,27.37,South,180,1.3,3.8,29,0.00,,---,0.00,VWS V15.00,2013-11-20 23:06:00,
2013-11-20 18:10:00,39.6,9.9,27.37,WSW,248,2.2,3.8,29,0.00,,---,0.00,VWS V15.00,2013-11-20 23:10:00,
2013-11-20 18:11:00,39.6,9.2,27.37,SSW,202,0.0,2.2,28,0.00,,---,0.00,VWS V15.00,2013-11-20 23:11:00,
2013-11-20 18:15:00,39.6,9.2,27.37,WSW,248,0.0,2.2,28,0.00,,---,0.00,VWS V15.00,2013-11-20 23:15:00,
2013-11-20 18:16:00,39.6,9.2,27.37,SSW,202,0.9,1.6,28,0.00,,---,0.00,VWS V15.00,2013-11-20 23:16:00,
2013-11-20 18:20:00,39.9,7.8,27.37,WSW,248,3.8,4.3,26,0.00,,---,0.00,VWS V15.00,2013-11-20 23:20:00,
2013-11-20 18:21:00,40.6,8.4,27.37,WSW,248,2.7,3.8,26,0.00,,---,0.00,VWS V15.00,2013-11-20 23:21:00,
2013-11-20 18:25:00,40.5,9.9,27.37,WNW,292,3.6,3.8,28,0.00,,---,0.00,VWS V15.00,2013-11-20 23:25:00,
2013-11-20 18:26:00,40.5,8.3,27.34,WSW,248,1.3,3.6,26,0.00,,---,0.00,VWS V15.00,2013-11-20 23:26:00,
2013-11-20 18:30:00,40.3,9.8,27.34,WSW,248,2.7,4.0,28,0.00,,---,0.00,VWS V15.00,2013-11-20 23:30:00,
2013-11-20 18:31:00,39.7,9.3,27.34,WNW,292,2.5,2.7,28,0.00,,---,0.00,VWS V15.00,2013-11-20 23:31:00,
2013-11-20 18:35:00,39.0,9.5,27.34,WSW,248,4.7,4.7,29,0.00,,---,0.00,VWS V15.00,2013-11-20 23:35:00,
2013-11-20 18:36:00,38.7,9.2,27.34,SSW,202,3.4,4.7,29,0.00,,---,0.00,VWS V15.00,2013-11-20 23:36:00,
2013-11-20 18:40:00,38.7,9.2,27.34,West,270,2.9,4.7,29,0.00,,---,0.00,VWS V15.00,2013-11-20 23:40:00,
2013-11-20 18:41:00,38.5,9.8,27.37,WNW,292,2.5,2.9,30,0.00,,---,0.00,VWS V15.00,2013-11-20 23:41:00,
2013-11-20 18:45:00,38.5,9.0,27.37,WSW,248,2.9,3.8,29,0.00,,---,0.00,VWS V15.00,2013-11-20 23:45:00,
2013-11-20 18:46:00,38.1,9.4,27.37,WSW,248,2.9,4.9,30,0.00,,---,0.00,VWS V15.00,2013-11-20 23:46:00,
2013-11-20 18:50:00,37.9,9.3,27.37,WSW,248,2.2,4.9,30,0.00,,---,0.00,VWS V15.00,2013-11-20 23:50:00,
2013-11-20 18:51:00,37.9,10.0,27.37,WSW,248,2.0,2.9,31,0.00,,---,0.00,VWS V15.00,2013-11-20 23:51:00,
2013-11-20 18:55:00,37.8,9.1,27.37,West,270,1.6,2.9,30,0.00,,---,0.00,VWS V15.00,2013-11-20 23:55:00,
2013-11-20 18:56:00,37.6,9.0,27.37,WSW,248,3.4,3.8,30,0.00,,---,0.00,VWS V15.00,2013-11-20 23:56:00,
2013-11-20 19:00:00,37.4,9.5,27.37,WNW,292,2.5,3.8,31,0.00,,---,0.00,VWS V15.00,2013-11-21 00:00:00,
2013-11-20 19:01:00,37.2,9.4,27.37,SW,225,4.0,4.0,31,0.00,,---,0.00,VWS V15.00,2013-11-21 00:01:00,
2013-11-20 19:05:00,37.4,9.5,27.37,WSW,248,2.7,4.3,31,0.00,,---,1.00,VWS V15.00,2013-11-21 00:05:00,
2013-11-20 19:06:00,37.4,9.5,27.37,WSW,248,2.0,6.0,31,0.00,,---,1.00,VWS V15.00,2013-11-21 00:06:00,
2013-11-20 19:10:00,37.4,9.5,27.37,West,270,3.1,6.0,31,0.00,,---,1.00,VWS V15.00,2013-11-21 00:10:00,
2013-11-20 19:11:00,37.2,10.1,27.40,WNW,292,2.9,3.1,32,0.00,,---,1.00,VWS V15.00,2013-11-21 00:11:00,
2013-11-20 19:15:00,37.0,10.6,27.40,West,270,2.7,3.8,33,0.00,,---,1.00,VWS V15.00,2013-11-21 00:15:00,
2013-11-20 19:16:00,36.9,10.5,27.40,West,270,2.2,3.1,33,0.00,,---,1.00,VWS V15.00,2013-11-21 00:16:00,
2013-11-20 19:20:00,36.7,10.3,27.40,WSW,248,2.5,3.1,33,0.00,,---,1.00,VWS V15.00,2013-11-21 00:20:00,
2013-11-20 19:21:00,36.7,9.6,27.40,ESE,112,0.0,2.9,32,0.00,,---,1.00,VWS V15.00,2013-11-21 00:21:00,
2013-11-20 19:25:00,36.7,9.6,27.40,East,90,0.0,2.9,32,0.00,,---,1.00,VWS V15.00,2013-11-21 00:25:00,
2013-11-20 19:26:00,36.3,9.3,27.40,East,90,0.0,0.0,32,0.00,,---,1.00,VWS V15.00,2013-11-21 00:26:00,
2013-11-20 19:30:00,36.1,9.1,27.40,NW,315,0.0,1.3,32,0.00,,---,1.00,VWS V15.00,2013-11-21 00:30:00,
2013-11-20 19:31:00,36.1,9.1,27.40,South,180,0.0,0.9,32,0.00,,---,1.00,VWS V15.00,2013-11-21 00:31:00,
2013-11-20 19:35:00,35.8,10.2,27.40,WSW,248,0.0,0.9,34,0.00,,---,1.00,VWS V15.00,2013-11-21 00:35:00,
2013-11-20 19:36:00,35.8,11.4,27.40,WNW,292,2.0,2.2,36,0.00,,---,1.00,VWS V15.00,2013-11-21 00:36:00,
2013-11-20 19:40:00,35.6,12.5,27.40,WSW,248,1.6,2.9,38,0.00,,---,1.00,VWS V15.00,2013-11-21 00:40:00,
2013-11-20 19:41:00,35.4,12.4,27.40,WSW,248,2.9,2.9,38,0.00,,---,1.00,VWS V15.00,2013-11-21 00:41:00,
2013-11-20 19:45:00,35.6,12.5,27.40,WSW,248,1.3,2.9,38,0.00,,---,1.00,VWS V15.00,2013-11-21 00:45:00,
2013-11-20 19:46:00,35.4,12.9,27.40,West,270,1.3,2.0,39,0.00,,---,1.00,VWS V15.00,2013-11-21 00:46:00,
2013-11-20 19:50:00,35.4,12.4,27.40,West,270,0.0,2.0,38,0.00,,---,1.00,VWS V15.00,2013-11-21 00:50:00,
2013-11-20 19:51:00,35.4,12.9,27.40,WNW,292,0.0,1.3,39,0.00,,---,1.00,VWS V15.00,2013-11-21 00:51:00,
2013-11-20 19:55:00,35.1,13.2,27.40,WNW,292,2.0,2.5,40,0.00,,---,1.00,VWS V15.00,2013-11-21 00:55:00,
2013-11-20 19:56:00,35.1,11.4,27.43,WNW,292,0.0,2.0,37,0.00,,---,1.00,VWS V15.00,2013-11-21 00:56:00,
2013-11-20 20:00:00,34.9,12.4,27.43,NW,315,1.3,2.0,39,0.00,,---,1.00,VWS V15.00,2013-11-21 01:00:00,
2013-11-20 20:01:00,34.9,12.4,27.43,WNW,292,2.2,2.5,39,0.00,,---,1.00,VWS V15.00,2013-11-21 01:01:00,
2013-11-20 20:05:00,34.9,13.0,27.43,South,180,0.0,2.5,40,0.00,,---,1.00,VWS V15.00,2013-11-21 01:05:00,
2013-11-20 20:06:00,34.7,12.9,27.43,WNW,292,1.3,1.6,40,0.00,,---,1.00,VWS V15.00,2013-11-21 01:06:00,
2013-11-20 20:10:00,34.5,12.7,27.43,WNW,292,1.3,1.6,40,0.00,,---,1.00,VWS V15.00,2013-11-21 01:10:00,
2013-11-20 20:11:00,34.3,13.1,27.40,SW,225,2.7,3.1,41,0.00,,---,1.00,VWS V15.00,2013-11-21 01:11:00,
2013-11-20 20:15:00,34.3,13.1,27.40,SW,225,0.0,3.4,41,0.00,,---,1.00,VWS V15.00,2013-11-21 01:15:00,
2013-11-20 20:16:00,34.3,12.5,27.40,WNW,292,0.0,1.3,40,0.00,,---,1.00,VWS V15.00,2013-11-21 01:16:00,
2013-11-20 20:20:00,34.3,13.1,27.40,NW,315,1.6,1.6,41,0.00,,---,1.00,VWS V15.00,2013-11-21 01:20:00,
2013-11-20 20:21:00,34.3,13.1,27.40,WNW,292,1.1,2.0,41,0.00,,---,1.00,VWS V15.00,2013-11-21 01:21:00,
2013-11-20 20:25:00,34.2,13.5,27.40,WNW,292,2.2,3.1,42,0.00,,---,1.00,VWS V15.00,2013-11-21 01:25:00,
2013-11-20 20:26:00,34.2,13.5,27.40,SSE,158,0.0,2.2,42,0.00,,---,1.00,VWS V15.00,2013-11-21 01:26:00,
2013-11-20 20:30:00,34.3,13.6,27.40,SSW,202,1.6,2.5,42,0.00,,---,1.00,VWS V15.00,2013-11-21 01:30:00,
2013-11-20 20:31:00,34.5,13.3,27.40,WSW,248,2.5,2.7,41,0.00,,---,1.00,VWS V15.00,2013-11-21 01:31:00,
2013-11-20 20:35:00,34.9,13.6,27.40,SSW,202,1.1,2.7,41,0.00,,---,1.00,VWS V15.00,2013-11-21 01:35:00,
2013-11-20 20:36:00,34.9,13.6,27.40,WNW,292,2.0,2.5,41,0.00,,---,1.00,VWS V15.00,2013-11-21 01:36:00,
2013-11-20 20:40:00,34.9,13.6,27.40,West,270,1.6,2.5,41,0.00,,---,1.00,VWS V15.00,2013-11-21 01:40:00,
2013-11-20 20:41:00,34.9,13.6,27.43,West,270,2.0,2.2,41,0.00,,---,1.00,VWS V15.00,2013-11-21 01:41:00,
2013-11-20 20:45:00,34.7,14.0,27.43,South,180,0.0,2.2,42,0.00,,---,1.00,VWS V15.00,2013-11-21 01:45:00,
2013-11-20 20:46:00,34.5,13.3,27.43,WNW,292,2.0,2.0,41,0.00,,---,1.00,VWS V15.00,2013-11-21 01:46:00,
2013-11-20 20:50:00,34.3,13.1,27.43,WNW,292,0.0,2.0,41,0.00,,---,1.00,VWS V15.00,2013-11-21 01:50:00,
2013-11-20 20:51:00,34.3,12.5,27.43,WNW,292,0.0,1.1,40,0.00,,---,1.00,VWS V15.00,2013-11-21 01:51:00,
2013-11-20 20:55:00,34.3,12.5,27.43,ENE,68,1.1,2.0,40,0.00,,---,1.00,VWS V15.00,2013-11-21 01:55:00,
2013-11-20 20:56:00,34.3,12.5,27.43,NNE,22,1.6,2.5,40,0.00,,---,1.00,VWS V15.00,2013-11-21 01:56:00,
2013-11-20 21:00:00,34.3,13.1,27.43,WNW,292,1.1,2.5,41,0.00,,---,1.00,VWS V15.00,2013-11-21 02:00:00,
2013-11-20 21:01:00,34.3,13.1,27.43,NW,315,2.5,2.5,41,0.00,,---,1.00,VWS V15.00,2013-11-21 02:01:00,
2013-11-20 21:05:00,34.3,13.6,27.43,SSE,158,0.0,2.7,42,0.00,,---,1.00,VWS V15.00,2013-11-21 02:05:00,
2013-11-20 21:06:00,34.3,13.1,27.43,NW,315,0.0,0.0,41,0.00,,---,1.00,VWS V15.00,2013-11-21 02:06:00,
2013-11-20 21:10:00,34.3,13.1,27.43,WNW,292,2.2,2.2,41,0.00,,---,1.00,VWS V15.00,2013-11-21 02:10:00,
2013-11-20 21:11:00,34.2,13.5,27.43,NW,315,2.0,2.9,42,0.00,,---,1.00,VWS V15.00,2013-11-21 02:11:00,
2013-11-20 21:15:00,34.2,14.0,27.43,WSW,248,0.0,2.9,43,0.00,,---,1.00,VWS V15.00,2013-11-21 02:15:00,
2013-11-20 21:16:00,34.3,14.2,27.43,SE,135,2.5,3.8,43,0.00,,---,1.00,VWS V15.00,2013-11-21 02:16:00,
2013-11-20 21:20:00,34.3,13.6,27.43,North,0,2.5,3.8,42,0.00,,---,1.00,VWS V15.00,2013-11-21 02:20:00,
2013-11-20 21:21:00,34.5,13.8,27.43,ESE,112,2.9,3.4,42,0.00,,---,1.00,VWS V15.00,2013-11-21 02:21:00,
2013-11-20 21:25:00,34.7,13.4,27.43,SE,135,2.0,3.4,41,0.00,,---,1.00,VWS V15.00,2013-11-21 02:25:00,
2013-11-20 21:26:00,34.7,13.4,27.43,East,90,0.0,2.0,41,0.00,,---,1.00,VWS V15.00,2013-11-21 02:26:00,
2013-11-20 21:30:00,34.5,13.3,27.43,NE,45,1.3,2.0,41,0.00,,---,1.00,VWS V15.00,2013-11-21 02:30:00,
2013-11-20 21:31:00,34.3,13.1,27.43,SSW,202,0.9,1.3,41,0.00,,---,1.00,VWS V15.00,2013-11-21 02:31:00,
2013-11-20 21:35:00,34.5,13.8,27.43,NE,45,2.2,2.7,42,0.00,,---,1.00,VWS V15.00,2013-11-21 02:35:00,
2013-11-20 21:36:00,34.5,13.3,27.43,ESE,112,0.0,2.2,41,0.00,,---,1.00,VWS V15.00,2013-11-21 02:36:00,
2013-11-20 21:40:00,34.5,13.3,27.43,SSE,158,0.0,2.2,41,0.00,,---,1.00,VWS V15.00,2013-11-21 02:40:00,
2013-11-20 21:41:00,34.5,13.3,27.43,SSE,158,0.0,0.0,41,0.00,,---,1.00,VWS V15.00,2013-11-21 02:41:00,
2013-11-20 21:45:00,34.5,13.3,27.43,NW,315,1.3,1.6,41,0.00,,---,1.00,VWS V15.00,2013-11-21 02:45:00,
2013-11-20 21:46:00,34.5,13.3,27.43,NW,315,0.0,1.3,41,0.00,,---,1.00,VWS V15.00,2013-11-21 02:46:00,
2013-11-20 21:50:00,34.7,15.0,27.43,WSW,248,2.2,2.2,44,0.00,,---,1.00,VWS V15.00,2013-11-21 02:50:00,
2013-11-20 21:51:00,34.7,14.5,27.43,WNW,292,0.0,2.2,43,0.00,,---,1.00,VWS V15.00,2013-11-21 02:51:00,
2013-11-20 21:55:00,34.9,14.7,27.43,South,180,0.0,2.2,43,0.00,,---,1.00,VWS V15.00,2013-11-21 02:55:00,
2013-11-20 21:56:00,35.1,14.8,27.43,South,180,0.0,0.0,43,0.00,,---,1.00,VWS V15.00,2013-11-21 02:56:00,
2013-11-20 22:00:00,35.1,14.3,27.43,South,180,0.0,0.0,42,0.00,,---,1.00,VWS V15.00,2013-11-21 03:00:00,
2013-11-20 22:01:00,35.4,15.7,27.43,South,180,0.0,2.0,44,0.00,,---,1.00,VWS V15.00,2013-11-21 03:01:00,
2013-11-20 22:05:00,35.2,14.5,27.43,ESE,112,0.0,2.0,42,0.00,,---,1.00,VWS V15.00,2013-11-21 03:05:00,
2013-11-20 22:06:00,35.4,14.6,27.43,SE,135,0.0,0.0,42,0.00,,---,1.00,VWS V15.00,2013-11-21 03:06:00,
2013-11-20 22:10:00,35.6,14.2,27.43,North,0,0.0,0.0,41,0.00,,---,1.00,VWS V15.00,2013-11-21 03:10:00,
2013-11-20 22:11:00,35.6,14.8,27.43,NNW,338,1.6,2.0,42,0.00,,---,1.00,VWS V15.00,2013-11-21 03:11:00,
2013-11-20 22:15:00,36.0,15.1,27.43,West,270,2.5,2.7,42,0.00,,---,1.00,VWS V15.00,2013-11-21 03:15:00,
2013-11-20 22:16:00,36.1,15.3,27.43,West,270,0.0,2.5,42,0.00,,---,1.00,VWS V15.00,2013-11-21 03:16:00,
2013-11-20 22:20:00,37.0,15.0,27.43,WSW,248,1.3,3.6,40,0.00,,---,1.00,VWS V15.00,2013-11-21 03:20:00,
2013-11-20 22:21:00,37.0,15.0,27.43,West,270,2.5,2.5,40,0.00,,---,1.00,VWS V15.00,2013-11-21 03:21:00,
2013-11-20 22:25:00,36.9,14.8,27.43,WSW,248,2.5,2.9,40,0.00,,---,1.00,VWS V15.00,2013-11-21 03:25:00,
2013-11-20 22:26:00,37.2,15.1,27.43,WSW,248,2.0,2.7,40,0.00,,---,1.00,VWS V15.00,2013-11-21 03:26:00,
2013-11-20 22:30:00,37.4,15.3,27.43,SSE,158,2.2,3.8,40,0.00,,---,1.00,VWS V15.00,2013-11-21 03:30:00,
2013-11-20 22:31:00,37.6,14.9,27.43,West,270,1.1,3.1,39,0.00,,---,1.00,VWS V15.00,2013-11-21 03:31:00,
2013-11-20 22:35:00,37.8,15.0,27.43,WSW,248,4.0,4.0,39,0.00,,---,1.00,VWS V15.00,2013-11-21 03:35:00,
2013-11-20 22:36:00,37.9,15.2,27.43,East,90,1.6,4.0,39,0.00,,---,1.00,VWS V15.00,2013-11-21 03:36:00,
2013-11-20 22:40:00,38.3,15.5,27.43,West,270,2.7,4.0,39,0.00,,---,1.00,VWS V15.00,2013-11-21 03:40:00,
2013-11-20 22:41:00,38.7,15.3,27.46,SW,225,2.7,3.4,38,0.00,,---,1.00,VWS V15.00,2013-11-21 03:41:00,
2013-11-20 22:45:00,38.7,14.6,27.46,WNW,292,0.9,5.6,37,0.00,,---,1.00,VWS V15.00,2013-11-21 03:45:00,
2013-11-20 22:46:00,38.8,14.8,27.46,West,270,2.7,2.9,37,0.00,,---,1.00,VWS V15.00,2013-11-21 03:46:00,
2013-11-20 22:50:00,39.0,15.0,27.46,WSW,248,3.6,3.8,37,0.00,,---,1.00,VWS V15.00,2013-11-21 03:50:00,
2013-11-20 22:51:00,39.2,14.5,27.46,WSW,248,4.0,4.0,36,0.00,,---,1.00,VWS V15.00,2013-11-21 03:51:00,
2013-11-20 22:55:00,39.6,14.2,27.46,WNW,292,2.5,4.7,35,0.00,,---,1.00,VWS V15.00,2013-11-21 03:55:00,
2013-11-20 22:56:00,39.6,14.2,27.46,SW,225,2.7,3.8,35,0.00,,---,1.00,VWS V15.00,2013-11-21 03:56:00,
2013-11-20 23:00:00,39.6,14.2,27.46,SW,225,0.0,3.8,35,0.00,,---,1.00,VWS V15.00,2013-11-21 04:00:00,
2013-11-20 23:01:00,39.6,14.2,27.46,SW,225,2.0,2.7,35,0.00,,---,1.00,VWS V15.00,2013-11-21 04:01:00,
2013-11-20 23:05:00,39.7,14.3,27.46,SSW,202,0.0,3.6,35,0.00,,---,1.00,VWS V15.00,2013-11-21 04:05:00,
2013-11-20 23:06:00,39.6,14.2,27.46,WSW,248,0.0,0.0,35,0.00,,---,1.00,VWS V15.00,2013-11-21 04:06:00,
2013-11-20 23:10:00,39.6,14.8,27.46,WNW,292,2.5,2.5,36,0.00,,---,1.00,VWS V15.00,2013-11-21 04:10:00,
2013-11-20 23:11:00,39.6,14.2,27.46,SW,225,2.2,2.5,35,0.00,,---,1.00,VWS V15.00,2013-11-21 04:11:00,
2013-11-20 23:15:00,39.6,14.2,27.46,West,270,2.5,2.5,35,0.00,,---,1.00,VWS V15.00,2013-11-21 04:15:00,
2013-11-20 23:16:00,39.7,14.3,27.46,WSW,248,2.7,2.7,35,0.00,,---,1.00,VWS V15.00,2013-11-21 04:16:00,
2013-11-20 23:20:00,39.7,13.7,27.46,WSW,248,2.2,2.9,34,0.00,,---,1.00,VWS V15.00,2013-11-21 04:20:00,
2013-11-20 23:21:00,39.9,13.8,27.46,WSW,248,1.1,2.5,34,0.00,,---,1.00,VWS V15.00,2013-11-21 04:21:00,
2013-11-20 23:25:00,39.9,13.2,27.46,West,270,2.5,4.5,33,0.00,,---,1.00,VWS V15.00,2013-11-21 04:25:00,
2013-11-20 23:26:00,39.9,13.8,27.46,WSW,248,2.9,2.9,34,0.00,,---,1.00,VWS V15.00,2013-11-21 04:26:00,
2013-11-20 23:30:00,40.1,14.0,27.46,SSW,202,2.9,4.0,34,0.00,,---,1.00,VWS V15.00,2013-11-21 04:30:00,
2013-11-20 23:31:00,39.9,13.2,27.46,WSW,248,2.2,4.0,33,0.00,,---,1.00,VWS V15.00,2013-11-21 04:31:00,
2013-11-20 23:35:00,39.9,13.2,27.46,WSW,248,3.1,4.0,33,0.00,,---,1.00,VWS V15.00,2013-11-21 04:35:00,
2013-11-20 23:36:00,39.9,13.2,27.46,WSW,248,1.6,3.1,33,0.00,,---,1.00,VWS V15.00,2013-11-21 04:36:00,
2013-11-20 23:40:00,39.9,13.2,27.46,WSW,248,2.2,3.1,33,0.00,,---,1.00,VWS V15.00,2013-11-21 04:40:00,
2013-11-20 23:41:00,39.9,13.2,27.46,WSW,248,4.3,4.3,33,0.00,,---,1.00,VWS V15.00,2013-11-21 04:41:00,
2013-11-20 23:45:00,39.9,13.2,27.46,WSW,248,2.9,4.9,33,0.00,,---,1.00,VWS V15.00,2013-11-21 04:45:00,
2013-11-20 23:46:00,39.9,13.8,27.46,WSW,248,2.9,2.9,34,0.00,,---,1.00,VWS V15.00,2013-11-21 04:46:00,
2013-11-20 23:50:00,39.9,13.8,27.46,West,270,5.8,5.8,34,0.00,,---,1.00,VWS V15.00,2013-11-21 04:50:00,
2013-11-20 23:51:00,39.9,13.8,27.46,WSW,248,2.2,5.8,34,0.00,,---,1.00,VWS V15.00,2013-11-21 04:51:00,
2013-11-20 23:55:00,39.9,14.5,27.46,West,270,3.4,5.8,35,0.00,,---,1.00,VWS V15.00,2013-11-21 04:55:00,
2013-11-20 23:56:00,39.9,14.5,27.46,WSW,248,1.3,3.8,35,0.00,,---,1.00,VWS V15.00,2013-11-21 04:56:00,